<?xml version="1.0" encoding="UTF-8" standalone="no" ?>
<gpx xmlns="http://www.topografix.com/GPX/1/1" xmlns:xsi="http://www.w3.org/2001/XMLSchema-instance" xsi:schemaLocation="http://www.topografix.com/GPX/1/1 http://www.topografix.com/GPX/1/1/gpx.xsd" version="1.1" creator="VisuGPX - https://www.visugpx.com">
  <metadata>
    <name>VTT hauteville</name>
    <desc><![CDATA[decouverte des chemins. Pas le top top]]></desc>
  </metadata>
  <trk>
    <name><![CDATA[Vers Hauteville en VTT]]></name>
    <desc><![CDATA[decouverte des chemins de vers à coté dechez moi]]></desc>
    <trkseg>
      <trkpt lat="45.55215" lon="6.16059">
        <ele>277.79998779297</ele>
        <time>2011-06-13T09:13:59.000Z</time>
      </trkpt>
      <trkpt lat="45.55214" lon="6.16036">
        <ele>308.20001220703</ele>
        <time>2011-06-13T09:14:35.000Z</time>
      </trkpt>
      <trkpt lat="45.55214" lon="6.16039">
        <ele>307.60000610352</ele>
        <time>2011-06-13T09:14:38.000Z</time>
      </trkpt>
      <trkpt lat="45.55211" lon="6.16042">
        <ele>307.60000610352</ele>
        <time>2011-06-13T09:14:41.000Z</time>
      </trkpt>
      <trkpt lat="45.55198" lon="6.16052">
        <ele>306.60000610352</ele>
        <time>2011-06-13T09:14:45.000Z</time>
      </trkpt>
      <trkpt lat="45.55132" lon="6.16099">
        <ele>302.39999389648</ele>
        <time>2011-06-13T09:14:59.000Z</time>
      </trkpt>
      <trkpt lat="45.55128" lon="6.16117">
        <ele>302.39999389648</ele>
        <time>2011-06-13T09:15:03.000Z</time>
      </trkpt>
      <trkpt lat="45.5511" lon="6.16128">
        <ele>301.79998779297</ele>
        <time>2011-06-13T09:15:07.000Z</time>
      </trkpt>
      <trkpt lat="45.5506" lon="6.16159">
        <ele>302.39999389648</ele>
        <time>2011-06-13T09:15:18.000Z</time>
      </trkpt>
      <trkpt lat="45.54988" lon="6.16211">
        <ele>301</ele>
        <time>2011-06-13T09:15:31.000Z</time>
      </trkpt>
      <trkpt lat="45.54949" lon="6.16247">
        <ele>301</ele>
        <time>2011-06-13T09:15:38.000Z</time>
      </trkpt>
      <trkpt lat="45.54929" lon="6.16287">
        <ele>301</ele>
        <time>2011-06-13T09:15:43.000Z</time>
      </trkpt>
      <trkpt lat="45.54897" lon="6.16284">
        <ele>300.39999389648</ele>
        <time>2011-06-13T09:15:49.000Z</time>
      </trkpt>
      <trkpt lat="45.54871" lon="6.16257">
        <ele>301</ele>
        <time>2011-06-13T09:15:57.000Z</time>
      </trkpt>
      <trkpt lat="45.54866" lon="6.16249">
        <ele>301.79998779297</ele>
        <time>2011-06-13T09:16:05.000Z</time>
      </trkpt>
      <trkpt lat="45.54863" lon="6.16243">
        <ele>302.39999389648</ele>
        <time>2011-06-13T09:16:08.000Z</time>
      </trkpt>
      <trkpt lat="45.54857" lon="6.16233">
        <ele>302.79998779297</ele>
        <time>2011-06-13T09:16:13.000Z</time>
      </trkpt>
      <trkpt lat="45.54853" lon="6.16229">
        <ele>302.79998779297</ele>
        <time>2011-06-13T09:16:16.000Z</time>
      </trkpt>
      <trkpt lat="45.54836" lon="6.16223">
        <ele>302.79998779297</ele>
        <time>2011-06-13T09:16:24.000Z</time>
      </trkpt>
      <trkpt lat="45.54825" lon="6.16206">
        <ele>303.39999389648</ele>
        <time>2011-06-13T09:16:31.000Z</time>
      </trkpt>
      <trkpt lat="45.54825" lon="6.16199">
        <ele>303.39999389648</ele>
        <time>2011-06-13T09:16:33.000Z</time>
      </trkpt>
      <trkpt lat="45.54811" lon="6.16139">
        <ele>304.79998779297</ele>
        <time>2011-06-13T09:16:44.000Z</time>
      </trkpt>
      <trkpt lat="45.54785" lon="6.16101">
        <ele>307.20001220703</ele>
        <time>2011-06-13T09:16:53.000Z</time>
      </trkpt>
      <trkpt lat="45.54729" lon="6.16082">
        <ele>309.20001220703</ele>
        <time>2011-06-13T09:16:57.000Z</time>
      </trkpt>
      <trkpt lat="45.54697" lon="6.1607">
        <ele>310.60000610352</ele>
        <time>2011-06-13T09:17:01.000Z</time>
      </trkpt>
      <trkpt lat="45.54679" lon="6.16061">
        <ele>311.60000610352</ele>
        <time>2011-06-13T09:17:04.000Z</time>
      </trkpt>
      <trkpt lat="45.5465" lon="6.16068">
        <ele>314.79998779297</ele>
        <time>2011-06-13T09:17:12.000Z</time>
      </trkpt>
      <trkpt lat="45.54637" lon="6.16074">
        <ele>315.79998779297</ele>
        <time>2011-06-13T09:17:16.000Z</time>
      </trkpt>
      <trkpt lat="45.54627" lon="6.16071">
        <ele>317.20001220703</ele>
        <time>2011-06-13T09:17:21.000Z</time>
      </trkpt>
      <trkpt lat="45.5463" lon="6.16074">
        <ele>318.20001220703</ele>
        <time>2011-06-13T09:17:24.000Z</time>
      </trkpt>
      <trkpt lat="45.5464" lon="6.16077">
        <ele>318.79998779297</ele>
        <time>2011-06-13T09:17:27.000Z</time>
      </trkpt>
      <trkpt lat="45.54641" lon="6.16092">
        <ele>318.79998779297</ele>
        <time>2011-06-13T09:17:31.000Z</time>
      </trkpt>
      <trkpt lat="45.54646" lon="6.16099">
        <ele>318.79998779297</ele>
        <time>2011-06-13T09:17:33.000Z</time>
      </trkpt>
      <trkpt lat="45.5465" lon="6.16103">
        <ele>319.20001220703</ele>
        <time>2011-06-13T09:17:37.000Z</time>
      </trkpt>
      <trkpt lat="45.5465" lon="6.16103">
        <ele>323.60000610352</ele>
        <time>2011-06-13T09:17:46.000Z</time>
      </trkpt>
      <trkpt lat="45.54651" lon="6.161">
        <ele>323.60000610352</ele>
        <time>2011-06-13T09:17:48.000Z</time>
      </trkpt>
      <trkpt lat="45.54651" lon="6.16098">
        <ele>324</ele>
        <time>2011-06-13T09:17:51.000Z</time>
      </trkpt>
      <trkpt lat="45.54658" lon="6.161">
        <ele>326</ele>
        <time>2011-06-13T09:18:01.000Z</time>
      </trkpt>
      <trkpt lat="45.5466" lon="6.16103">
        <ele>326.39999389648</ele>
        <time>2011-06-13T09:18:04.000Z</time>
      </trkpt>
      <trkpt lat="45.5466" lon="6.16106">
        <ele>326.79998779297</ele>
        <time>2011-06-13T09:18:06.000Z</time>
      </trkpt>
      <trkpt lat="45.54659" lon="6.1612">
        <ele>327.39999389648</ele>
        <time>2011-06-13T09:18:13.000Z</time>
      </trkpt>
      <trkpt lat="45.54667" lon="6.16132">
        <ele>327.39999389648</ele>
        <time>2011-06-13T09:18:19.000Z</time>
      </trkpt>
      <trkpt lat="45.54674" lon="6.1615">
        <ele>327.39999389648</ele>
        <time>2011-06-13T09:18:27.000Z</time>
      </trkpt>
      <trkpt lat="45.54681" lon="6.16172">
        <ele>326.79998779297</ele>
        <time>2011-06-13T09:18:42.000Z</time>
      </trkpt>
      <trkpt lat="45.54679" lon="6.16178">
        <ele>328.79998779297</ele>
        <time>2011-06-13T09:18:48.000Z</time>
      </trkpt>
      <trkpt lat="45.5468" lon="6.16196">
        <ele>333.60000610352</ele>
        <time>2011-06-13T09:19:00.000Z</time>
      </trkpt>
      <trkpt lat="45.54675" lon="6.16201">
        <ele>336.60000610352</ele>
        <time>2011-06-13T09:19:04.000Z</time>
      </trkpt>
      <trkpt lat="45.54678" lon="6.16201">
        <ele>338</ele>
        <time>2011-06-13T09:19:07.000Z</time>
      </trkpt>
      <trkpt lat="45.54669" lon="6.16204">
        <ele>341.39999389648</ele>
        <time>2011-06-13T09:19:13.000Z</time>
      </trkpt>
      <trkpt lat="45.54665" lon="6.16207">
        <ele>345.20001220703</ele>
        <time>2011-06-13T09:19:17.000Z</time>
      </trkpt>
      <trkpt lat="45.54653" lon="6.16219">
        <ele>352.39999389648</ele>
        <time>2011-06-13T09:19:21.000Z</time>
      </trkpt>
      <trkpt lat="45.54649" lon="6.16228">
        <ele>354.20001220703</ele>
        <time>2011-06-13T09:19:26.000Z</time>
      </trkpt>
      <trkpt lat="45.54639" lon="6.1623">
        <ele>360.60000610352</ele>
        <time>2011-06-13T09:19:31.000Z</time>
      </trkpt>
      <trkpt lat="45.54629" lon="6.16235">
        <ele>366.79998779297</ele>
        <time>2011-06-13T09:19:41.000Z</time>
      </trkpt>
      <trkpt lat="45.5459" lon="6.16223">
        <ele>375.39999389648</ele>
        <time>2011-06-13T09:19:49.000Z</time>
      </trkpt>
      <trkpt lat="45.54588" lon="6.16221">
        <ele>376</ele>
        <time>2011-06-13T09:19:50.000Z</time>
      </trkpt>
      <trkpt lat="45.54567" lon="6.1622">
        <ele>382.20001220703</ele>
        <time>2011-06-13T09:19:57.000Z</time>
      </trkpt>
      <trkpt lat="45.54559" lon="6.16212">
        <ele>384</ele>
        <time>2011-06-13T09:19:59.000Z</time>
      </trkpt>
      <trkpt lat="45.54547" lon="6.16198">
        <ele>386.39999389648</ele>
        <time>2011-06-13T09:20:06.000Z</time>
      </trkpt>
      <trkpt lat="45.5454" lon="6.16189">
        <ele>390.39999389648</ele>
        <time>2011-06-13T09:20:17.000Z</time>
      </trkpt>
      <trkpt lat="45.54538" lon="6.16186">
        <ele>391.79998779297</ele>
        <time>2011-06-13T09:20:20.000Z</time>
      </trkpt>
      <trkpt lat="45.54536" lon="6.16182">
        <ele>391.79998779297</ele>
        <time>2011-06-13T09:20:23.000Z</time>
      </trkpt>
      <trkpt lat="45.54537" lon="6.16179">
        <ele>394.20001220703</ele>
        <time>2011-06-13T09:20:29.000Z</time>
      </trkpt>
      <trkpt lat="45.5453" lon="6.16177">
        <ele>394.20001220703</ele>
        <time>2011-06-13T09:20:35.000Z</time>
      </trkpt>
      <trkpt lat="45.54534" lon="6.16165">
        <ele>396.60000610352</ele>
        <time>2011-06-13T09:20:46.000Z</time>
      </trkpt>
      <trkpt lat="45.54519" lon="6.16168">
        <ele>394.20001220703</ele>
        <time>2011-06-13T09:20:56.000Z</time>
      </trkpt>
      <trkpt lat="45.54502" lon="6.16171">
        <ele>390.79998779297</ele>
        <time>2011-06-13T09:21:15.000Z</time>
      </trkpt>
      <trkpt lat="45.5448" lon="6.16159">
        <ele>386</ele>
        <time>2011-06-13T09:21:37.000Z</time>
      </trkpt>
      <trkpt lat="45.54471" lon="6.16165">
        <ele>381.60000610352</ele>
        <time>2011-06-13T09:22:02.000Z</time>
      </trkpt>
      <trkpt lat="45.5446" lon="6.16155">
        <ele>376</ele>
        <time>2011-06-13T09:22:26.000Z</time>
      </trkpt>
      <trkpt lat="45.54435" lon="6.16154">
        <ele>365.79998779297</ele>
        <time>2011-06-13T09:22:51.000Z</time>
      </trkpt>
      <trkpt lat="45.54449" lon="6.1615">
        <ele>363.39999389648</ele>
        <time>2011-06-13T09:23:12.000Z</time>
      </trkpt>
      <trkpt lat="45.54451" lon="6.16147">
        <ele>363.39999389648</ele>
        <time>2011-06-13T09:23:27.000Z</time>
      </trkpt>
      <trkpt lat="45.54444" lon="6.16157">
        <ele>364.39999389648</ele>
        <time>2011-06-13T09:23:41.000Z</time>
      </trkpt>
      <trkpt lat="45.5444" lon="6.16158">
        <ele>364.79998779297</ele>
        <time>2011-06-13T09:23:42.000Z</time>
      </trkpt>
      <trkpt lat="45.54417" lon="6.16144">
        <ele>365.79998779297</ele>
        <time>2011-06-13T09:23:54.000Z</time>
      </trkpt>
      <trkpt lat="45.54406" lon="6.1615">
        <ele>367.79998779297</ele>
        <time>2011-06-13T09:24:02.000Z</time>
      </trkpt>
      <trkpt lat="45.54382" lon="6.16167">
        <ele>374</ele>
        <time>2011-06-13T09:24:15.000Z</time>
      </trkpt>
      <trkpt lat="45.54355" lon="6.1617">
        <ele>381.20001220703</ele>
        <time>2011-06-13T09:24:26.000Z</time>
      </trkpt>
      <trkpt lat="45.54339" lon="6.16187">
        <ele>388.79998779297</ele>
        <time>2011-06-13T09:24:39.000Z</time>
      </trkpt>
      <trkpt lat="45.54337" lon="6.16191">
        <ele>392.20001220703</ele>
        <time>2011-06-13T09:24:50.000Z</time>
      </trkpt>
      <trkpt lat="45.54335" lon="6.16187">
        <ele>392.79998779297</ele>
        <time>2011-06-13T09:24:53.000Z</time>
      </trkpt>
      <trkpt lat="45.54319" lon="6.16188">
        <ele>392.79998779297</ele>
        <time>2011-06-13T09:25:02.000Z</time>
      </trkpt>
      <trkpt lat="45.54306" lon="6.16192">
        <ele>391.20001220703</ele>
        <time>2011-06-13T09:25:14.000Z</time>
      </trkpt>
      <trkpt lat="45.543" lon="6.16196">
        <ele>388</ele>
        <time>2011-06-13T09:25:24.000Z</time>
      </trkpt>
      <trkpt lat="45.54294" lon="6.1619">
        <ele>387</ele>
        <time>2011-06-13T09:25:34.000Z</time>
      </trkpt>
      <trkpt lat="45.54297" lon="6.16186">
        <ele>387</ele>
        <time>2011-06-13T09:25:41.000Z</time>
      </trkpt>
      <trkpt lat="45.54298" lon="6.16185">
        <ele>387</ele>
        <time>2011-06-13T09:25:43.000Z</time>
      </trkpt>
      <trkpt lat="45.54293" lon="6.16184">
        <ele>389.79998779297</ele>
        <time>2011-06-13T09:25:55.000Z</time>
      </trkpt>
      <trkpt lat="45.54292" lon="6.16184">
        <ele>390.39999389648</ele>
        <time>2011-06-13T09:25:56.000Z</time>
      </trkpt>
      <trkpt lat="45.5428" lon="6.16189">
        <ele>391.20001220703</ele>
        <time>2011-06-13T09:26:07.000Z</time>
      </trkpt>
      <trkpt lat="45.54271" lon="6.16192">
        <ele>392.79998779297</ele>
        <time>2011-06-13T09:26:15.000Z</time>
      </trkpt>
      <trkpt lat="45.54258" lon="6.16196">
        <ele>394.20001220703</ele>
        <time>2011-06-13T09:26:22.000Z</time>
      </trkpt>
      <trkpt lat="45.54249" lon="6.16186">
        <ele>394.60000610352</ele>
        <time>2011-06-13T09:26:32.000Z</time>
      </trkpt>
      <trkpt lat="45.54209" lon="6.16191">
        <ele>403.79998779297</ele>
        <time>2011-06-13T09:26:50.000Z</time>
      </trkpt>
      <trkpt lat="45.54194" lon="6.16186">
        <ele>392.79998779297</ele>
        <time>2011-06-13T09:27:12.000Z</time>
      </trkpt>
      <trkpt lat="45.54189" lon="6.16191">
        <ele>387</ele>
        <time>2011-06-13T09:27:56.000Z</time>
      </trkpt>
      <trkpt lat="45.54191" lon="6.16207">
        <ele>388.79998779297</ele>
        <time>2011-06-13T09:28:11.000Z</time>
      </trkpt>
      <trkpt lat="45.54194" lon="6.16212">
        <ele>389.79998779297</ele>
        <time>2011-06-13T09:28:15.000Z</time>
      </trkpt>
      <trkpt lat="45.542" lon="6.16223">
        <ele>389.79998779297</ele>
        <time>2011-06-13T09:28:22.000Z</time>
      </trkpt>
      <trkpt lat="45.54162" lon="6.16246">
        <ele>395.20001220703</ele>
        <time>2011-06-13T09:28:34.000Z</time>
      </trkpt>
      <trkpt lat="45.54124" lon="6.16228">
        <ele>397</ele>
        <time>2011-06-13T09:28:43.000Z</time>
      </trkpt>
      <trkpt lat="45.54109" lon="6.16215">
        <ele>398.60000610352</ele>
        <time>2011-06-13T09:28:46.000Z</time>
      </trkpt>
      <trkpt lat="45.54052" lon="6.16191">
        <ele>410.60000610352</ele>
        <time>2011-06-13T09:28:57.000Z</time>
      </trkpt>
      <trkpt lat="45.54032" lon="6.1618">
        <ele>413.39999389648</ele>
        <time>2011-06-13T09:29:01.000Z</time>
      </trkpt>
      <trkpt lat="45.54019" lon="6.16163">
        <ele>417.20001220703</ele>
        <time>2011-06-13T09:29:04.000Z</time>
      </trkpt>
      <trkpt lat="45.54013" lon="6.16149">
        <ele>419.60000610352</ele>
        <time>2011-06-13T09:29:06.000Z</time>
      </trkpt>
      <trkpt lat="45.5399" lon="6.1609">
        <ele>427.39999389648</ele>
        <time>2011-06-13T09:29:14.000Z</time>
      </trkpt>
      <trkpt lat="45.53949" lon="6.16014">
        <ele>424.39999389648</ele>
        <time>2011-06-13T09:29:25.000Z</time>
      </trkpt>
      <trkpt lat="45.53912" lon="6.15949">
        <ele>418.60000610352</ele>
        <time>2011-06-13T09:29:35.000Z</time>
      </trkpt>
      <trkpt lat="45.53908" lon="6.15943">
        <ele>418.60000610352</ele>
        <time>2011-06-13T09:29:36.000Z</time>
      </trkpt>
      <trkpt lat="45.53857" lon="6.15834">
        <ele>413.79998779297</ele>
        <time>2011-06-13T09:29:49.000Z</time>
      </trkpt>
      <trkpt lat="45.5385" lon="6.15821">
        <ele>413.39999389648</ele>
        <time>2011-06-13T09:29:51.000Z</time>
      </trkpt>
      <trkpt lat="45.53823" lon="6.15807">
        <ele>405.20001220703</ele>
        <time>2011-06-13T09:29:57.000Z</time>
      </trkpt>
      <trkpt lat="45.53818" lon="6.15813">
        <ele>405.20001220703</ele>
        <time>2011-06-13T09:29:58.000Z</time>
      </trkpt>
      <trkpt lat="45.53803" lon="6.15832">
        <ele>405.20001220703</ele>
        <time>2011-06-13T09:30:01.000Z</time>
      </trkpt>
      <trkpt lat="45.53796" lon="6.15859">
        <ele>405.79998779297</ele>
        <time>2011-06-13T09:30:04.000Z</time>
      </trkpt>
      <trkpt lat="45.53771" lon="6.15896">
        <ele>406.60000610352</ele>
        <time>2011-06-13T09:30:09.000Z</time>
      </trkpt>
      <trkpt lat="45.53748" lon="6.15911">
        <ele>404.79998779297</ele>
        <time>2011-06-13T09:30:12.000Z</time>
      </trkpt>
      <trkpt lat="45.53728" lon="6.15933">
        <ele>404.20001220703</ele>
        <time>2011-06-13T09:30:17.000Z</time>
      </trkpt>
      <trkpt lat="45.53721" lon="6.15937">
        <ele>404.20001220703</ele>
        <time>2011-06-13T09:30:19.000Z</time>
      </trkpt>
      <trkpt lat="45.53722" lon="6.15947">
        <ele>403.79998779297</ele>
        <time>2011-06-13T09:30:24.000Z</time>
      </trkpt>
      <trkpt lat="45.5375" lon="6.15892">
        <ele>397.60000610352</ele>
        <time>2011-06-13T09:30:35.000Z</time>
      </trkpt>
      <trkpt lat="45.53777" lon="6.15854">
        <ele>384</ele>
        <time>2011-06-13T09:30:45.000Z</time>
      </trkpt>
      <trkpt lat="45.53804" lon="6.15819">
        <ele>375</ele>
        <time>2011-06-13T09:30:55.000Z</time>
      </trkpt>
      <trkpt lat="45.53836" lon="6.15785">
        <ele>369.20001220703</ele>
        <time>2011-06-13T09:31:07.000Z</time>
      </trkpt>
      <trkpt lat="45.53839" lon="6.15782">
        <ele>369.60000610352</ele>
        <time>2011-06-13T09:31:08.000Z</time>
      </trkpt>
      <trkpt lat="45.53812" lon="6.15722">
        <ele>370.20001220703</ele>
        <time>2011-06-13T09:31:20.000Z</time>
      </trkpt>
      <trkpt lat="45.53805" lon="6.15702">
        <ele>369.20001220703</ele>
        <time>2011-06-13T09:31:23.000Z</time>
      </trkpt>
      <trkpt lat="45.53792" lon="6.1569">
        <ele>370.60000610352</ele>
        <time>2011-06-13T09:31:27.000Z</time>
      </trkpt>
      <trkpt lat="45.53783" lon="6.15677">
        <ele>372</ele>
        <time>2011-06-13T09:31:30.000Z</time>
      </trkpt>
      <trkpt lat="45.53775" lon="6.15651">
        <ele>372</ele>
        <time>2011-06-13T09:31:34.000Z</time>
      </trkpt>
      <trkpt lat="45.53765" lon="6.15632">
        <ele>371.20001220703</ele>
        <time>2011-06-13T09:31:37.000Z</time>
      </trkpt>
      <trkpt lat="45.53718" lon="6.15544">
        <ele>374</ele>
        <time>2011-06-13T09:31:51.000Z</time>
      </trkpt>
      <trkpt lat="45.53693" lon="6.15501">
        <ele>372</ele>
        <time>2011-06-13T09:31:58.000Z</time>
      </trkpt>
      <trkpt lat="45.5368" lon="6.15466">
        <ele>372</ele>
        <time>2011-06-13T09:32:03.000Z</time>
      </trkpt>
      <trkpt lat="45.5367" lon="6.15419">
        <ele>374.39999389648</ele>
        <time>2011-06-13T09:32:10.000Z</time>
      </trkpt>
      <trkpt lat="45.53663" lon="6.15405">
        <ele>375.39999389648</ele>
        <time>2011-06-13T09:32:13.000Z</time>
      </trkpt>
      <trkpt lat="45.5363" lon="6.15336">
        <ele>376</ele>
        <time>2011-06-13T09:32:23.000Z</time>
      </trkpt>
      <trkpt lat="45.53613" lon="6.15312">
        <ele>376.79998779297</ele>
        <time>2011-06-13T09:32:27.000Z</time>
      </trkpt>
      <trkpt lat="45.53603" lon="6.1529">
        <ele>376.39999389648</ele>
        <time>2011-06-13T09:32:30.000Z</time>
      </trkpt>
      <trkpt lat="45.53567" lon="6.15244">
        <ele>379.20001220703</ele>
        <time>2011-06-13T09:32:37.000Z</time>
      </trkpt>
      <trkpt lat="45.53535" lon="6.15237">
        <ele>383.20001220703</ele>
        <time>2011-06-13T09:32:42.000Z</time>
      </trkpt>
      <trkpt lat="45.53502" lon="6.15243">
        <ele>391.79998779297</ele>
        <time>2011-06-13T09:32:48.000Z</time>
      </trkpt>
      <trkpt lat="45.53491" lon="6.15264">
        <ele>403.79998779297</ele>
        <time>2011-06-13T09:32:55.000Z</time>
      </trkpt>
      <trkpt lat="45.53477" lon="6.15267">
        <ele>406.20001220703</ele>
        <time>2011-06-13T09:32:57.000Z</time>
      </trkpt>
      <trkpt lat="45.53385" lon="6.15262">
        <ele>421</ele>
        <time>2011-06-13T09:33:09.000Z</time>
      </trkpt>
      <trkpt lat="45.53381" lon="6.15265">
        <ele>422.60000610352</ele>
        <time>2011-06-13T09:33:10.000Z</time>
      </trkpt>
      <trkpt lat="45.5338" lon="6.15274">
        <ele>425</ele>
        <time>2011-06-13T09:33:17.000Z</time>
      </trkpt>
      <trkpt lat="45.53376" lon="6.1527">
        <ele>426</ele>
        <time>2011-06-13T09:33:19.000Z</time>
      </trkpt>
      <trkpt lat="45.53377" lon="6.15281">
        <ele>427.79998779297</ele>
        <time>2011-06-13T09:33:23.000Z</time>
      </trkpt>
      <trkpt lat="45.53388" lon="6.15317">
        <ele>431.20001220703</ele>
        <time>2011-06-13T09:33:28.000Z</time>
      </trkpt>
      <trkpt lat="45.53403" lon="6.15361">
        <ele>432.60000610352</ele>
        <time>2011-06-13T09:33:33.000Z</time>
      </trkpt>
      <trkpt lat="45.53396" lon="6.15407">
        <ele>433.60000610352</ele>
        <time>2011-06-13T09:33:39.000Z</time>
      </trkpt>
      <trkpt lat="45.53382" lon="6.1542">
        <ele>434</ele>
        <time>2011-06-13T09:33:42.000Z</time>
      </trkpt>
      <trkpt lat="45.53377" lon="6.15449">
        <ele>431.60000610352</ele>
        <time>2011-06-13T09:33:47.000Z</time>
      </trkpt>
      <trkpt lat="45.53392" lon="6.15479">
        <ele>428.79998779297</ele>
        <time>2011-06-13T09:33:51.000Z</time>
      </trkpt>
      <trkpt lat="45.53415" lon="6.15519">
        <ele>429.20001220703</ele>
        <time>2011-06-13T09:33:56.000Z</time>
      </trkpt>
      <trkpt lat="45.53471" lon="6.15631">
        <ele>422</ele>
        <time>2011-06-13T09:34:09.000Z</time>
      </trkpt>
      <trkpt lat="45.53474" lon="6.15632">
        <ele>410.60000610352</ele>
        <time>2011-06-13T09:34:18.000Z</time>
      </trkpt>
      <trkpt lat="45.53489" lon="6.15664">
        <ele>408.20001220703</ele>
        <time>2011-06-13T09:34:26.000Z</time>
      </trkpt>
      <trkpt lat="45.53508" lon="6.15696">
        <ele>405.20001220703</ele>
        <time>2011-06-13T09:34:32.000Z</time>
      </trkpt>
      <trkpt lat="45.53524" lon="6.15713">
        <ele>398</ele>
        <time>2011-06-13T09:34:46.000Z</time>
      </trkpt>
      <trkpt lat="45.53533" lon="6.1573">
        <ele>402.39999389648</ele>
        <time>2011-06-13T09:34:52.000Z</time>
      </trkpt>
      <trkpt lat="45.53547" lon="6.15763">
        <ele>413.79998779297</ele>
        <time>2011-06-13T09:35:04.000Z</time>
      </trkpt>
      <trkpt lat="45.53562" lon="6.15791">
        <ele>403.39999389648</ele>
        <time>2011-06-13T09:35:22.000Z</time>
      </trkpt>
      <trkpt lat="45.53565" lon="6.158">
        <ele>394.60000610352</ele>
        <time>2011-06-13T09:36:09.000Z</time>
      </trkpt>
      <trkpt lat="45.53573" lon="6.15802">
        <ele>384</ele>
        <time>2011-06-13T09:38:54.000Z</time>
      </trkpt>
      <trkpt lat="45.53575" lon="6.15823">
        <ele>382.60000610352</ele>
        <time>2011-06-13T09:39:02.000Z</time>
      </trkpt>
      <trkpt lat="45.53583" lon="6.15843">
        <ele>383.60000610352</ele>
        <time>2011-06-13T09:39:07.000Z</time>
      </trkpt>
      <trkpt lat="45.53589" lon="6.15859">
        <ele>385</ele>
        <time>2011-06-13T09:39:13.000Z</time>
      </trkpt>
      <trkpt lat="45.53619" lon="6.15905">
        <ele>387</ele>
        <time>2011-06-13T09:39:20.000Z</time>
      </trkpt>
      <trkpt lat="45.53639" lon="6.15968">
        <ele>386</ele>
        <time>2011-06-13T09:39:28.000Z</time>
      </trkpt>
      <trkpt lat="45.53644" lon="6.15983">
        <ele>384</ele>
        <time>2011-06-13T09:39:31.000Z</time>
      </trkpt>
      <trkpt lat="45.53633" lon="6.16009">
        <ele>383.20001220703</ele>
        <time>2011-06-13T09:39:36.000Z</time>
      </trkpt>
      <trkpt lat="45.5363" lon="6.16025">
        <ele>382.20001220703</ele>
        <time>2011-06-13T09:39:38.000Z</time>
      </trkpt>
      <trkpt lat="45.53613" lon="6.16107">
        <ele>377.79998779297</ele>
        <time>2011-06-13T09:39:49.000Z</time>
      </trkpt>
      <trkpt lat="45.53614" lon="6.1611">
        <ele>377.79998779297</ele>
        <time>2011-06-13T09:39:51.000Z</time>
      </trkpt>
      <trkpt lat="45.53625" lon="6.16123">
        <ele>377.79998779297</ele>
        <time>2011-06-13T09:39:57.000Z</time>
      </trkpt>
      <trkpt lat="45.53631" lon="6.16136">
        <ele>377.79998779297</ele>
        <time>2011-06-13T09:40:02.000Z</time>
      </trkpt>
      <trkpt lat="45.53628" lon="6.16178">
        <ele>381.60000610352</ele>
        <time>2011-06-13T09:40:15.000Z</time>
      </trkpt>
      <trkpt lat="45.53633" lon="6.16174">
        <ele>379.79998779297</ele>
        <time>2011-06-13T09:40:22.000Z</time>
      </trkpt>
      <trkpt lat="45.53635" lon="6.16153">
        <ele>380.79998779297</ele>
        <time>2011-06-13T09:40:28.000Z</time>
      </trkpt>
      <trkpt lat="45.53629" lon="6.16144">
        <ele>381.60000610352</ele>
        <time>2011-06-13T09:40:32.000Z</time>
      </trkpt>
      <trkpt lat="45.53597" lon="6.16141">
        <ele>381.60000610352</ele>
        <time>2011-06-13T09:40:37.000Z</time>
      </trkpt>
      <trkpt lat="45.53542" lon="6.16131">
        <ele>384</ele>
        <time>2011-06-13T09:40:44.000Z</time>
      </trkpt>
      <trkpt lat="45.53428" lon="6.16062">
        <ele>383.20001220703</ele>
        <time>2011-06-13T09:40:56.000Z</time>
      </trkpt>
      <trkpt lat="45.5339" lon="6.16038">
        <ele>381.20001220703</ele>
        <time>2011-06-13T09:41:00.000Z</time>
      </trkpt>
      <trkpt lat="45.53358" lon="6.16004">
        <ele>378.39999389648</ele>
        <time>2011-06-13T09:41:04.000Z</time>
      </trkpt>
      <trkpt lat="45.53344" lon="6.15985">
        <ele>376.79998779297</ele>
        <time>2011-06-13T09:41:06.000Z</time>
      </trkpt>
      <trkpt lat="45.533" lon="6.15902">
        <ele>367.79998779297</ele>
        <time>2011-06-13T09:41:14.000Z</time>
      </trkpt>
      <trkpt lat="45.5326" lon="6.15858">
        <ele>361.39999389648</ele>
        <time>2011-06-13T09:41:19.000Z</time>
      </trkpt>
      <trkpt lat="45.53172" lon="6.15723">
        <ele>334.60000610352</ele>
        <time>2011-06-13T09:41:33.000Z</time>
      </trkpt>
      <trkpt lat="45.53114" lon="6.15634">
        <ele>321.60000610352</ele>
        <time>2011-06-13T09:41:45.000Z</time>
      </trkpt>
      <trkpt lat="45.53104" lon="6.15658">
        <ele>309.60000610352</ele>
        <time>2011-06-13T09:41:52.000Z</time>
      </trkpt>
      <trkpt lat="45.53102" lon="6.15665">
        <ele>309.60000610352</ele>
        <time>2011-06-13T09:41:53.000Z</time>
      </trkpt>
      <trkpt lat="45.5309" lon="6.15689">
        <ele>306.60000610352</ele>
        <time>2011-06-13T09:41:56.000Z</time>
      </trkpt>
      <trkpt lat="45.53081" lon="6.15703">
        <ele>306.20001220703</ele>
        <time>2011-06-13T09:41:58.000Z</time>
      </trkpt>
      <trkpt lat="45.53075" lon="6.15726">
        <ele>305.20001220703</ele>
        <time>2011-06-13T09:42:01.000Z</time>
      </trkpt>
      <trkpt lat="45.5306" lon="6.1576">
        <ele>307.20001220703</ele>
        <time>2011-06-13T09:42:07.000Z</time>
      </trkpt>
      <trkpt lat="45.53049" lon="6.15771">
        <ele>303.79998779297</ele>
        <time>2011-06-13T09:42:13.000Z</time>
      </trkpt>
      <trkpt lat="45.53033" lon="6.15803">
        <ele>301.39999389648</ele>
        <time>2011-06-13T09:42:23.000Z</time>
      </trkpt>
      <trkpt lat="45.53034" lon="6.15816">
        <ele>296.20001220703</ele>
        <time>2011-06-13T09:42:32.000Z</time>
      </trkpt>
      <trkpt lat="45.53035" lon="6.15829">
        <ele>293.79998779297</ele>
        <time>2011-06-13T09:42:41.000Z</time>
      </trkpt>
      <trkpt lat="45.53035" lon="6.15835">
        <ele>291.79998779297</ele>
        <time>2011-06-13T09:42:45.000Z</time>
      </trkpt>
      <trkpt lat="45.53042" lon="6.15843">
        <ele>289.79998779297</ele>
        <time>2011-06-13T09:42:50.000Z</time>
      </trkpt>
      <trkpt lat="45.53046" lon="6.15849">
        <ele>289</ele>
        <time>2011-06-13T09:42:53.000Z</time>
      </trkpt>
      <trkpt lat="45.53047" lon="6.15858">
        <ele>288.39999389648</ele>
        <time>2011-06-13T09:42:58.000Z</time>
      </trkpt>
      <trkpt lat="45.53048" lon="6.15862">
        <ele>288.39999389648</ele>
        <time>2011-06-13T09:43:00.000Z</time>
      </trkpt>
      <trkpt lat="45.53044" lon="6.15896">
        <ele>296.60000610352</ele>
        <time>2011-06-13T09:43:11.000Z</time>
      </trkpt>
      <trkpt lat="45.53046" lon="6.15946">
        <ele>305.20001220703</ele>
        <time>2011-06-13T09:43:21.000Z</time>
      </trkpt>
      <trkpt lat="45.53045" lon="6.15966">
        <ele>310</ele>
        <time>2011-06-13T09:43:27.000Z</time>
      </trkpt>
      <trkpt lat="45.53041" lon="6.16004">
        <ele>318.20001220703</ele>
        <time>2011-06-13T09:43:40.000Z</time>
      </trkpt>
      <trkpt lat="45.53041" lon="6.16009">
        <ele>319.20001220703</ele>
        <time>2011-06-13T09:43:42.000Z</time>
      </trkpt>
      <trkpt lat="45.53042" lon="6.16022">
        <ele>321.20001220703</ele>
        <time>2011-06-13T09:43:46.000Z</time>
      </trkpt>
      <trkpt lat="45.53062" lon="6.1608">
        <ele>325</ele>
        <time>2011-06-13T09:44:01.000Z</time>
      </trkpt>
      <trkpt lat="45.53071" lon="6.16128">
        <ele>327.39999389648</ele>
        <time>2011-06-13T09:44:17.000Z</time>
      </trkpt>
      <trkpt lat="45.53071" lon="6.16127">
        <ele>328.39999389648</ele>
        <time>2011-06-13T09:44:19.000Z</time>
      </trkpt>
      <trkpt lat="45.53062" lon="6.16118">
        <ele>329.20001220703</ele>
        <time>2011-06-13T09:44:23.000Z</time>
      </trkpt>
      <trkpt lat="45.53051" lon="6.16114">
        <ele>329.79998779297</ele>
        <time>2011-06-13T09:44:34.000Z</time>
      </trkpt>
      <trkpt lat="45.53051" lon="6.16111">
        <ele>330.79998779297</ele>
        <time>2011-06-13T09:44:36.000Z</time>
      </trkpt>
      <trkpt lat="45.53053" lon="6.161">
        <ele>331.20001220703</ele>
        <time>2011-06-13T09:44:39.000Z</time>
      </trkpt>
      <trkpt lat="45.53054" lon="6.16079">
        <ele>332.60000610352</ele>
        <time>2011-06-13T09:44:43.000Z</time>
      </trkpt>
      <trkpt lat="45.53061" lon="6.16038">
        <ele>334.20001220703</ele>
        <time>2011-06-13T09:44:49.000Z</time>
      </trkpt>
      <trkpt lat="45.53049" lon="6.16008">
        <ele>335.60000610352</ele>
        <time>2011-06-13T09:44:55.000Z</time>
      </trkpt>
      <trkpt lat="45.5304" lon="6.15993">
        <ele>337</ele>
        <time>2011-06-13T09:45:04.000Z</time>
      </trkpt>
      <trkpt lat="45.5304" lon="6.15993">
        <ele>337.39999389648</ele>
        <time>2011-06-13T09:45:14.000Z</time>
      </trkpt>
      <trkpt lat="45.53037" lon="6.15996">
        <ele>338.39999389648</ele>
        <time>2011-06-13T09:45:19.000Z</time>
      </trkpt>
      <trkpt lat="45.53041" lon="6.15983">
        <ele>339.39999389648</ele>
        <time>2011-06-13T09:45:31.000Z</time>
      </trkpt>
      <trkpt lat="45.53042" lon="6.15983">
        <ele>339.79998779297</ele>
        <time>2011-06-13T09:45:41.000Z</time>
      </trkpt>
      <trkpt lat="45.53047" lon="6.15987">
        <ele>340.79998779297</ele>
        <time>2011-06-13T09:45:46.000Z</time>
      </trkpt>
      <trkpt lat="45.53048" lon="6.1599">
        <ele>340.79998779297</ele>
        <time>2011-06-13T09:45:48.000Z</time>
      </trkpt>
      <trkpt lat="45.53051" lon="6.15999">
        <ele>343.79998779297</ele>
        <time>2011-06-13T09:46:11.000Z</time>
      </trkpt>
      <trkpt lat="45.53037" lon="6.16002">
        <ele>345.60000610352</ele>
        <time>2011-06-13T09:46:31.000Z</time>
      </trkpt>
      <trkpt lat="45.53033" lon="6.15997">
        <ele>345.60000610352</ele>
        <time>2011-06-13T09:46:52.000Z</time>
      </trkpt>
      <trkpt lat="45.53031" lon="6.16015">
        <ele>347</ele>
        <time>2011-06-13T09:47:46.000Z</time>
      </trkpt>
      <trkpt lat="45.53035" lon="6.16022">
        <ele>348</ele>
        <time>2011-06-13T09:48:03.000Z</time>
      </trkpt>
      <trkpt lat="45.53028" lon="6.16034">
        <ele>351.39999389648</ele>
        <time>2011-06-13T09:48:22.000Z</time>
      </trkpt>
      <trkpt lat="45.53013" lon="6.16039">
        <ele>357.20001220703</ele>
        <time>2011-06-13T09:48:50.000Z</time>
      </trkpt>
      <trkpt lat="45.52992" lon="6.16047">
        <ele>365.39999389648</ele>
        <time>2011-06-13T09:49:07.000Z</time>
      </trkpt>
      <trkpt lat="45.52986" lon="6.16055">
        <ele>366.79998779297</ele>
        <time>2011-06-13T09:49:28.000Z</time>
      </trkpt>
      <trkpt lat="45.52987" lon="6.16056">
        <ele>366.79998779297</ele>
        <time>2011-06-13T09:49:29.000Z</time>
      </trkpt>
      <trkpt lat="45.52998" lon="6.16077">
        <ele>367.20001220703</ele>
        <time>2011-06-13T09:49:37.000Z</time>
      </trkpt>
      <trkpt lat="45.53001" lon="6.16082">
        <ele>367.20001220703</ele>
        <time>2011-06-13T09:49:41.000Z</time>
      </trkpt>
      <trkpt lat="45.53" lon="6.16094">
        <ele>368.20001220703</ele>
        <time>2011-06-13T09:49:53.000Z</time>
      </trkpt>
      <trkpt lat="45.52988" lon="6.16088">
        <ele>368.20001220703</ele>
        <time>2011-06-13T09:50:03.000Z</time>
      </trkpt>
      <trkpt lat="45.52979" lon="6.16085">
        <ele>370.60000610352</ele>
        <time>2011-06-13T09:50:14.000Z</time>
      </trkpt>
      <trkpt lat="45.52976" lon="6.16083">
        <ele>368.20001220703</ele>
        <time>2011-06-13T09:50:26.000Z</time>
      </trkpt>
      <trkpt lat="45.52969" lon="6.16106">
        <ele>366.20001220703</ele>
        <time>2011-06-13T09:50:54.000Z</time>
      </trkpt>
      <trkpt lat="45.5298" lon="6.16118">
        <ele>364.79998779297</ele>
        <time>2011-06-13T09:51:24.000Z</time>
      </trkpt>
      <trkpt lat="45.52973" lon="6.16138">
        <ele>364.79998779297</ele>
        <time>2011-06-13T09:51:48.000Z</time>
      </trkpt>
      <trkpt lat="45.52961" lon="6.16146">
        <ele>367.20001220703</ele>
        <time>2011-06-13T09:52:12.000Z</time>
      </trkpt>
      <trkpt lat="45.52958" lon="6.16146">
        <ele>369.20001220703</ele>
        <time>2011-06-13T09:52:27.000Z</time>
      </trkpt>
      <trkpt lat="45.52966" lon="6.16165">
        <ele>370.60000610352</ele>
        <time>2011-06-13T09:52:41.000Z</time>
      </trkpt>
      <trkpt lat="45.52983" lon="6.16216">
        <ele>373.60000610352</ele>
        <time>2011-06-13T09:53:00.000Z</time>
      </trkpt>
      <trkpt lat="45.52984" lon="6.16218">
        <ele>373.60000610352</ele>
        <time>2011-06-13T09:53:01.000Z</time>
      </trkpt>
      <trkpt lat="45.52987" lon="6.16226">
        <ele>376</ele>
        <time>2011-06-13T09:53:05.000Z</time>
      </trkpt>
      <trkpt lat="45.52993" lon="6.16238">
        <ele>377.39999389648</ele>
        <time>2011-06-13T09:53:09.000Z</time>
      </trkpt>
      <trkpt lat="45.52994" lon="6.16242">
        <ele>378.39999389648</ele>
        <time>2011-06-13T09:53:11.000Z</time>
      </trkpt>
      <trkpt lat="45.52996" lon="6.16255">
        <ele>383.20001220703</ele>
        <time>2011-06-13T09:53:21.000Z</time>
      </trkpt>
      <trkpt lat="45.52994" lon="6.16266">
        <ele>385.60000610352</ele>
        <time>2011-06-13T09:53:31.000Z</time>
      </trkpt>
      <trkpt lat="45.52995" lon="6.16269">
        <ele>386</ele>
        <time>2011-06-13T09:53:35.000Z</time>
      </trkpt>
      <trkpt lat="45.53004" lon="6.16295">
        <ele>391.79998779297</ele>
        <time>2011-06-13T09:53:45.000Z</time>
      </trkpt>
      <trkpt lat="45.53008" lon="6.16313">
        <ele>393.20001220703</ele>
        <time>2011-06-13T09:53:49.000Z</time>
      </trkpt>
      <trkpt lat="45.53029" lon="6.16382">
        <ele>388.79998779297</ele>
        <time>2011-06-13T09:54:02.000Z</time>
      </trkpt>
      <trkpt lat="45.53036" lon="6.16416">
        <ele>386.39999389648</ele>
        <time>2011-06-13T09:54:13.000Z</time>
      </trkpt>
      <trkpt lat="45.53034" lon="6.16442">
        <ele>389.39999389648</ele>
        <time>2011-06-13T09:54:25.000Z</time>
      </trkpt>
      <trkpt lat="45.5304" lon="6.16479">
        <ele>388.39999389648</ele>
        <time>2011-06-13T09:54:38.000Z</time>
      </trkpt>
      <trkpt lat="45.53037" lon="6.165">
        <ele>389.39999389648</ele>
        <time>2011-06-13T09:54:46.000Z</time>
      </trkpt>
      <trkpt lat="45.53038" lon="6.16507">
        <ele>390.39999389648</ele>
        <time>2011-06-13T09:54:51.000Z</time>
      </trkpt>
      <trkpt lat="45.53048" lon="6.16528">
        <ele>391.20001220703</ele>
        <time>2011-06-13T09:54:59.000Z</time>
      </trkpt>
      <trkpt lat="45.53048" lon="6.16539">
        <ele>394.20001220703</ele>
        <time>2011-06-13T09:55:03.000Z</time>
      </trkpt>
      <trkpt lat="45.53027" lon="6.16558">
        <ele>404.20001220703</ele>
        <time>2011-06-13T09:55:13.000Z</time>
      </trkpt>
      <trkpt lat="45.5303" lon="6.16571">
        <ele>412.39999389648</ele>
        <time>2011-06-13T09:55:19.000Z</time>
      </trkpt>
      <trkpt lat="45.5303" lon="6.16579">
        <ele>415.39999389648</ele>
        <time>2011-06-13T09:55:21.000Z</time>
      </trkpt>
      <trkpt lat="45.53052" lon="6.16632">
        <ele>430.79998779297</ele>
        <time>2011-06-13T09:55:32.000Z</time>
      </trkpt>
      <trkpt lat="45.53074" lon="6.16677">
        <ele>433.20001220703</ele>
        <time>2011-06-13T09:55:41.000Z</time>
      </trkpt>
      <trkpt lat="45.53074" lon="6.16709">
        <ele>433.20001220703</ele>
        <time>2011-06-13T09:55:47.000Z</time>
      </trkpt>
      <trkpt lat="45.53086" lon="6.16756">
        <ele>430.79998779297</ele>
        <time>2011-06-13T09:56:01.000Z</time>
      </trkpt>
      <trkpt lat="45.53106" lon="6.16778">
        <ele>426.79998779297</ele>
        <time>2011-06-13T09:56:09.000Z</time>
      </trkpt>
      <trkpt lat="45.53113" lon="6.1679">
        <ele>427.39999389648</ele>
        <time>2011-06-13T09:56:14.000Z</time>
      </trkpt>
      <trkpt lat="45.53143" lon="6.1682">
        <ele>427.39999389648</ele>
        <time>2011-06-13T09:56:25.000Z</time>
      </trkpt>
      <trkpt lat="45.53159" lon="6.1685">
        <ele>432.20001220703</ele>
        <time>2011-06-13T09:56:37.000Z</time>
      </trkpt>
      <trkpt lat="45.53167" lon="6.16883">
        <ele>434</ele>
        <time>2011-06-13T09:56:48.000Z</time>
      </trkpt>
      <trkpt lat="45.53172" lon="6.16906">
        <ele>436.39999389648</ele>
        <time>2011-06-13T09:56:55.000Z</time>
      </trkpt>
      <trkpt lat="45.53187" lon="6.16949">
        <ele>439.39999389648</ele>
        <time>2011-06-13T09:57:07.000Z</time>
      </trkpt>
      <trkpt lat="45.53194" lon="6.16995">
        <ele>439.39999389648</ele>
        <time>2011-06-13T09:57:20.000Z</time>
      </trkpt>
      <trkpt lat="45.53199" lon="6.17012">
        <ele>438.39999389648</ele>
        <time>2011-06-13T09:57:28.000Z</time>
      </trkpt>
      <trkpt lat="45.53203" lon="6.17046">
        <ele>439.39999389648</ele>
        <time>2011-06-13T09:57:42.000Z</time>
      </trkpt>
      <trkpt lat="45.53211" lon="6.17079">
        <ele>444.20001220703</ele>
        <time>2011-06-13T09:57:51.000Z</time>
      </trkpt>
      <trkpt lat="45.53219" lon="6.17106">
        <ele>443.60000610352</ele>
        <time>2011-06-13T09:57:57.000Z</time>
      </trkpt>
      <trkpt lat="45.53242" lon="6.17144">
        <ele>447</ele>
        <time>2011-06-13T09:58:09.000Z</time>
      </trkpt>
      <trkpt lat="45.53227" lon="6.17162">
        <ele>443.20001220703</ele>
        <time>2011-06-13T09:58:18.000Z</time>
      </trkpt>
      <trkpt lat="45.53183" lon="6.1714">
        <ele>445.20001220703</ele>
        <time>2011-06-13T09:58:30.000Z</time>
      </trkpt>
      <trkpt lat="45.53155" lon="6.17114">
        <ele>448</ele>
        <time>2011-06-13T09:58:43.000Z</time>
      </trkpt>
      <trkpt lat="45.5315" lon="6.17112">
        <ele>448.39999389648</ele>
        <time>2011-06-13T09:58:45.000Z</time>
      </trkpt>
      <trkpt lat="45.5314" lon="6.17115">
        <ele>450.39999389648</ele>
        <time>2011-06-13T09:58:50.000Z</time>
      </trkpt>
      <trkpt lat="45.53128" lon="6.17141">
        <ele>448.39999389648</ele>
        <time>2011-06-13T09:58:59.000Z</time>
      </trkpt>
      <trkpt lat="45.53117" lon="6.17144">
        <ele>449</ele>
        <time>2011-06-13T09:59:04.000Z</time>
      </trkpt>
      <trkpt lat="45.53103" lon="6.17135">
        <ele>447</ele>
        <time>2011-06-13T09:59:09.000Z</time>
      </trkpt>
      <trkpt lat="45.53072" lon="6.17076">
        <ele>446.60000610352</ele>
        <time>2011-06-13T09:59:22.000Z</time>
      </trkpt>
      <trkpt lat="45.5305" lon="6.17022">
        <ele>449.39999389648</ele>
        <time>2011-06-13T09:59:30.000Z</time>
      </trkpt>
      <trkpt lat="45.53045" lon="6.17018">
        <ele>453.20001220703</ele>
        <time>2011-06-13T09:59:33.000Z</time>
      </trkpt>
      <trkpt lat="45.53015" lon="6.16947">
        <ele>455.60000610352</ele>
        <time>2011-06-13T09:59:45.000Z</time>
      </trkpt>
      <trkpt lat="45.52997" lon="6.16939">
        <ele>457.60000610352</ele>
        <time>2011-06-13T09:59:53.000Z</time>
      </trkpt>
      <trkpt lat="45.52986" lon="6.16933">
        <ele>459</ele>
        <time>2011-06-13T09:59:58.000Z</time>
      </trkpt>
      <trkpt lat="45.52978" lon="6.16924">
        <ele>463.39999389648</ele>
        <time>2011-06-13T10:00:07.000Z</time>
      </trkpt>
      <trkpt lat="45.52978" lon="6.16923">
        <ele>463.39999389648</ele>
        <time>2011-06-13T10:00:08.000Z</time>
      </trkpt>
      <trkpt lat="45.52963" lon="6.16904">
        <ele>469.60000610352</ele>
        <time>2011-06-13T10:00:19.000Z</time>
      </trkpt>
      <trkpt lat="45.52959" lon="6.1689">
        <ele>475</ele>
        <time>2011-06-13T10:00:27.000Z</time>
      </trkpt>
      <trkpt lat="45.52952" lon="6.16868">
        <ele>482.20001220703</ele>
        <time>2011-06-13T10:00:40.000Z</time>
      </trkpt>
      <trkpt lat="45.52939" lon="6.16852">
        <ele>489.79998779297</ele>
        <time>2011-06-13T10:00:50.000Z</time>
      </trkpt>
      <trkpt lat="45.52915" lon="6.16823">
        <ele>496.60000610352</ele>
        <time>2011-06-13T10:01:05.000Z</time>
      </trkpt>
      <trkpt lat="45.52899" lon="6.16808">
        <ele>499.39999389648</ele>
        <time>2011-06-13T10:01:14.000Z</time>
      </trkpt>
      <trkpt lat="45.52894" lon="6.16805">
        <ele>500.79998779297</ele>
        <time>2011-06-13T10:01:17.000Z</time>
      </trkpt>
      <trkpt lat="45.52887" lon="6.16793">
        <ele>504.79998779297</ele>
        <time>2011-06-13T10:01:23.000Z</time>
      </trkpt>
      <trkpt lat="45.52883" lon="6.16786">
        <ele>508</ele>
        <time>2011-06-13T10:01:28.000Z</time>
      </trkpt>
      <trkpt lat="45.52882" lon="6.16779">
        <ele>513.40002441406</ele>
        <time>2011-06-13T10:01:31.000Z</time>
      </trkpt>
      <trkpt lat="45.52865" lon="6.16764">
        <ele>525.40002441406</ele>
        <time>2011-06-13T10:01:42.000Z</time>
      </trkpt>
      <trkpt lat="45.52851" lon="6.16748">
        <ele>532.20001220703</ele>
        <time>2011-06-13T10:01:50.000Z</time>
      </trkpt>
      <trkpt lat="45.52829" lon="6.16728">
        <ele>535</ele>
        <time>2011-06-13T10:01:59.000Z</time>
      </trkpt>
      <trkpt lat="45.52823" lon="6.16725">
        <ele>534.59997558594</ele>
        <time>2011-06-13T10:02:01.000Z</time>
      </trkpt>
      <trkpt lat="45.52816" lon="6.16718">
        <ele>535.40002441406</ele>
        <time>2011-06-13T10:02:05.000Z</time>
      </trkpt>
      <trkpt lat="45.528" lon="6.167">
        <ele>537</ele>
        <time>2011-06-13T10:02:10.000Z</time>
      </trkpt>
      <trkpt lat="45.52781" lon="6.16687">
        <ele>537.40002441406</ele>
        <time>2011-06-13T10:02:13.000Z</time>
      </trkpt>
      <trkpt lat="45.52766" lon="6.16665">
        <ele>538.79998779297</ele>
        <time>2011-06-13T10:02:16.000Z</time>
      </trkpt>
      <trkpt lat="45.52725" lon="6.16602">
        <ele>536</ele>
        <time>2011-06-13T10:02:24.000Z</time>
      </trkpt>
      <trkpt lat="45.52716" lon="6.16587">
        <ele>534</ele>
        <time>2011-06-13T10:02:26.000Z</time>
      </trkpt>
      <trkpt lat="45.52705" lon="6.16552">
        <ele>531.20001220703</ele>
        <time>2011-06-13T10:02:29.000Z</time>
      </trkpt>
      <trkpt lat="45.52696" lon="6.16523">
        <ele>526.40002441406</ele>
        <time>2011-06-13T10:02:32.000Z</time>
      </trkpt>
      <trkpt lat="45.52662" lon="6.16459">
        <ele>521.59997558594</ele>
        <time>2011-06-13T10:02:39.000Z</time>
      </trkpt>
      <trkpt lat="45.52656" lon="6.16444">
        <ele>513.79998779297</ele>
        <time>2011-06-13T10:02:47.000Z</time>
      </trkpt>
      <trkpt lat="45.52646" lon="6.16438">
        <ele>513.79998779297</ele>
        <time>2011-06-13T10:02:51.000Z</time>
      </trkpt>
      <trkpt lat="45.52637" lon="6.16422">
        <ele>514.40002441406</ele>
        <time>2011-06-13T10:02:55.000Z</time>
      </trkpt>
      <trkpt lat="45.52617" lon="6.16387">
        <ele>516.79998779297</ele>
        <time>2011-06-13T10:03:02.000Z</time>
      </trkpt>
      <trkpt lat="45.52581" lon="6.16351">
        <ele>519.59997558594</ele>
        <time>2011-06-13T10:03:12.000Z</time>
      </trkpt>
      <trkpt lat="45.52577" lon="6.16346">
        <ele>520.20001220703</ele>
        <time>2011-06-13T10:03:13.000Z</time>
      </trkpt>
      <trkpt lat="45.52562" lon="6.16316">
        <ele>519.59997558594</ele>
        <time>2011-06-13T10:03:17.000Z</time>
      </trkpt>
      <trkpt lat="45.52546" lon="6.16296">
        <ele>517.20001220703</ele>
        <time>2011-06-13T10:03:22.000Z</time>
      </trkpt>
      <trkpt lat="45.52527" lon="6.16255">
        <ele>513.79998779297</ele>
        <time>2011-06-13T10:03:28.000Z</time>
      </trkpt>
      <trkpt lat="45.52512" lon="6.16232">
        <ele>516.79998779297</ele>
        <time>2011-06-13T10:03:33.000Z</time>
      </trkpt>
      <trkpt lat="45.52492" lon="6.16181">
        <ele>508</ele>
        <time>2011-06-13T10:03:41.000Z</time>
      </trkpt>
      <trkpt lat="45.5249" lon="6.16183">
        <ele>510</ele>
        <time>2011-06-13T10:03:46.000Z</time>
      </trkpt>
      <trkpt lat="45.52485" lon="6.16187">
        <ele>512</ele>
        <time>2011-06-13T10:03:50.000Z</time>
      </trkpt>
      <trkpt lat="45.52464" lon="6.16189">
        <ele>514.79998779297</ele>
        <time>2011-06-13T10:03:57.000Z</time>
      </trkpt>
      <trkpt lat="45.52462" lon="6.16183">
        <ele>516.79998779297</ele>
        <time>2011-06-13T10:04:21.000Z</time>
      </trkpt>
      <trkpt lat="45.52461" lon="6.16171">
        <ele>516.20001220703</ele>
        <time>2011-06-13T10:04:27.000Z</time>
      </trkpt>
      <trkpt lat="45.52457" lon="6.16147">
        <ele>515.79998779297</ele>
        <time>2011-06-13T10:04:33.000Z</time>
      </trkpt>
      <trkpt lat="45.52425" lon="6.16042">
        <ele>513.79998779297</ele>
        <time>2011-06-13T10:04:46.000Z</time>
      </trkpt>
      <trkpt lat="45.52423" lon="6.16035">
        <ele>513.79998779297</ele>
        <time>2011-06-13T10:04:47.000Z</time>
      </trkpt>
      <trkpt lat="45.52415" lon="6.15963">
        <ele>512</ele>
        <time>2011-06-13T10:04:55.000Z</time>
      </trkpt>
      <trkpt lat="45.52391" lon="6.15908">
        <ele>508.60000610352</ele>
        <time>2011-06-13T10:05:06.000Z</time>
      </trkpt>
      <trkpt lat="45.52387" lon="6.15883">
        <ele>508</ele>
        <time>2011-06-13T10:05:10.000Z</time>
      </trkpt>
      <trkpt lat="45.52373" lon="6.15865">
        <ele>508</ele>
        <time>2011-06-13T10:05:15.000Z</time>
      </trkpt>
      <trkpt lat="45.52344" lon="6.15844">
        <ele>510</ele>
        <time>2011-06-13T10:05:22.000Z</time>
      </trkpt>
      <trkpt lat="45.52317" lon="6.15782">
        <ele>510.60000610352</ele>
        <time>2011-06-13T10:05:29.000Z</time>
      </trkpt>
      <trkpt lat="45.5231" lon="6.15762">
        <ele>511</ele>
        <time>2011-06-13T10:05:31.000Z</time>
      </trkpt>
      <trkpt lat="45.52297" lon="6.15666">
        <ele>511.39999389648</ele>
        <time>2011-06-13T10:05:40.000Z</time>
      </trkpt>
      <trkpt lat="45.52247" lon="6.15543">
        <ele>509.60000610352</ele>
        <time>2011-06-13T10:05:53.000Z</time>
      </trkpt>
      <trkpt lat="45.52217" lon="6.15494">
        <ele>507.60000610352</ele>
        <time>2011-06-13T10:05:59.000Z</time>
      </trkpt>
      <trkpt lat="45.5221" lon="6.15481">
        <ele>507.20001220703</ele>
        <time>2011-06-13T10:06:01.000Z</time>
      </trkpt>
      <trkpt lat="45.52211" lon="6.15479">
        <ele>506.20001220703</ele>
        <time>2011-06-13T10:06:05.000Z</time>
      </trkpt>
      <trkpt lat="45.52217" lon="6.15489">
        <ele>505.60000610352</ele>
        <time>2011-06-13T10:06:07.000Z</time>
      </trkpt>
      <trkpt lat="45.52245" lon="6.15488">
        <ele>504.20001220703</ele>
        <time>2011-06-13T10:06:12.000Z</time>
      </trkpt>
      <trkpt lat="45.52252" lon="6.15456">
        <ele>497.60000610352</ele>
        <time>2011-06-13T10:06:15.000Z</time>
      </trkpt>
      <trkpt lat="45.52283" lon="6.15424">
        <ele>490.39999389648</ele>
        <time>2011-06-13T10:06:20.000Z</time>
      </trkpt>
      <trkpt lat="45.52329" lon="6.15411">
        <ele>485.60000610352</ele>
        <time>2011-06-13T10:06:28.000Z</time>
      </trkpt>
      <trkpt lat="45.52372" lon="6.15375">
        <ele>479.79998779297</ele>
        <time>2011-06-13T10:06:40.000Z</time>
      </trkpt>
      <trkpt lat="45.52387" lon="6.15359">
        <ele>475.79998779297</ele>
        <time>2011-06-13T10:06:44.000Z</time>
      </trkpt>
      <trkpt lat="45.52396" lon="6.15346">
        <ele>469.60000610352</ele>
        <time>2011-06-13T10:06:49.000Z</time>
      </trkpt>
      <trkpt lat="45.52381" lon="6.15322">
        <ele>463</ele>
        <time>2011-06-13T10:07:03.000Z</time>
      </trkpt>
      <trkpt lat="45.52374" lon="6.15288">
        <ele>460.60000610352</ele>
        <time>2011-06-13T10:07:13.000Z</time>
      </trkpt>
      <trkpt lat="45.52364" lon="6.15271">
        <ele>457.60000610352</ele>
        <time>2011-06-13T10:07:22.000Z</time>
      </trkpt>
      <trkpt lat="45.52344" lon="6.15251">
        <ele>454.20001220703</ele>
        <time>2011-06-13T10:07:33.000Z</time>
      </trkpt>
      <trkpt lat="45.52306" lon="6.15213">
        <ele>451</ele>
        <time>2011-06-13T10:07:46.000Z</time>
      </trkpt>
      <trkpt lat="45.52288" lon="6.15181">
        <ele>450</ele>
        <time>2011-06-13T10:07:54.000Z</time>
      </trkpt>
      <trkpt lat="45.5227" lon="6.15156">
        <ele>449</ele>
        <time>2011-06-13T10:07:59.000Z</time>
      </trkpt>
      <trkpt lat="45.52262" lon="6.15144">
        <ele>448.39999389648</ele>
        <time>2011-06-13T10:08:01.000Z</time>
      </trkpt>
      <trkpt lat="45.52247" lon="6.15125">
        <ele>447.60000610352</ele>
        <time>2011-06-13T10:08:05.000Z</time>
      </trkpt>
      <trkpt lat="45.52227" lon="6.15088">
        <ele>445.60000610352</ele>
        <time>2011-06-13T10:08:10.000Z</time>
      </trkpt>
      <trkpt lat="45.52206" lon="6.15008">
        <ele>443.60000610352</ele>
        <time>2011-06-13T10:08:18.000Z</time>
      </trkpt>
      <trkpt lat="45.522" lon="6.14984">
        <ele>443.20001220703</ele>
        <time>2011-06-13T10:08:21.000Z</time>
      </trkpt>
      <trkpt lat="45.52174" lon="6.14934">
        <ele>441.79998779297</ele>
        <time>2011-06-13T10:08:29.000Z</time>
      </trkpt>
      <trkpt lat="45.52161" lon="6.1492">
        <ele>434</ele>
        <time>2011-06-13T10:08:40.000Z</time>
      </trkpt>
      <trkpt lat="45.52167" lon="6.14911">
        <ele>433.60000610352</ele>
        <time>2011-06-13T10:08:46.000Z</time>
      </trkpt>
      <trkpt lat="45.52168" lon="6.14904">
        <ele>434</ele>
        <time>2011-06-13T10:08:49.000Z</time>
      </trkpt>
      <trkpt lat="45.52178" lon="6.14873">
        <ele>435</ele>
        <time>2011-06-13T10:08:56.000Z</time>
      </trkpt>
      <trkpt lat="45.52194" lon="6.14823">
        <ele>436.39999389648</ele>
        <time>2011-06-13T10:09:07.000Z</time>
      </trkpt>
      <trkpt lat="45.52194" lon="6.14818">
        <ele>437.39999389648</ele>
        <time>2011-06-13T10:09:10.000Z</time>
      </trkpt>
      <trkpt lat="45.52189" lon="6.1479">
        <ele>438.79998779297</ele>
        <time>2011-06-13T10:09:17.000Z</time>
      </trkpt>
      <trkpt lat="45.52183" lon="6.14757">
        <ele>439.39999389648</ele>
        <time>2011-06-13T10:09:21.000Z</time>
      </trkpt>
      <trkpt lat="45.52175" lon="6.14742">
        <ele>439.39999389648</ele>
        <time>2011-06-13T10:09:24.000Z</time>
      </trkpt>
      <trkpt lat="45.52176" lon="6.14738">
        <ele>440.79998779297</ele>
        <time>2011-06-13T10:09:31.000Z</time>
      </trkpt>
      <trkpt lat="45.52194" lon="6.14687">
        <ele>438</ele>
        <time>2011-06-13T10:09:39.000Z</time>
      </trkpt>
      <trkpt lat="45.52202" lon="6.14676">
        <ele>437</ele>
        <time>2011-06-13T10:09:41.000Z</time>
      </trkpt>
      <trkpt lat="45.52218" lon="6.14656">
        <ele>436</ele>
        <time>2011-06-13T10:09:45.000Z</time>
      </trkpt>
      <trkpt lat="45.52237" lon="6.14633">
        <ele>434.60000610352</ele>
        <time>2011-06-13T10:09:49.000Z</time>
      </trkpt>
      <trkpt lat="45.5225" lon="6.14613">
        <ele>434.60000610352</ele>
        <time>2011-06-13T10:09:56.000Z</time>
      </trkpt>
      <trkpt lat="45.5225" lon="6.14616">
        <ele>435</ele>
        <time>2011-06-13T10:09:58.000Z</time>
      </trkpt>
      <trkpt lat="45.52255" lon="6.14605">
        <ele>433.60000610352</ele>
        <time>2011-06-13T10:10:04.000Z</time>
      </trkpt>
      <trkpt lat="45.52263" lon="6.14599">
        <ele>431.60000610352</ele>
        <time>2011-06-13T10:10:14.000Z</time>
      </trkpt>
      <trkpt lat="45.52264" lon="6.14599">
        <ele>431.60000610352</ele>
        <time>2011-06-13T10:10:18.000Z</time>
      </trkpt>
      <trkpt lat="45.5226" lon="6.14577">
        <ele>435</ele>
        <time>2011-06-13T10:10:28.000Z</time>
      </trkpt>
      <trkpt lat="45.5226" lon="6.14564">
        <ele>436</ele>
        <time>2011-06-13T10:10:33.000Z</time>
      </trkpt>
      <trkpt lat="45.52247" lon="6.14519">
        <ele>429.20001220703</ele>
        <time>2011-06-13T10:10:42.000Z</time>
      </trkpt>
      <trkpt lat="45.52241" lon="6.14504">
        <ele>425</ele>
        <time>2011-06-13T10:10:51.000Z</time>
      </trkpt>
      <trkpt lat="45.52234" lon="6.14492">
        <ele>425</ele>
        <time>2011-06-13T10:10:59.000Z</time>
      </trkpt>
      <trkpt lat="45.52232" lon="6.14475">
        <ele>425.39999389648</ele>
        <time>2011-06-13T10:11:06.000Z</time>
      </trkpt>
      <trkpt lat="45.52223" lon="6.14448">
        <ele>429.20001220703</ele>
        <time>2011-06-13T10:11:20.000Z</time>
      </trkpt>
      <trkpt lat="45.52224" lon="6.14432">
        <ele>432.60000610352</ele>
        <time>2011-06-13T10:11:29.000Z</time>
      </trkpt>
      <trkpt lat="45.52224" lon="6.14413">
        <ele>431.20001220703</ele>
        <time>2011-06-13T10:11:41.000Z</time>
      </trkpt>
      <trkpt lat="45.52209" lon="6.14383">
        <ele>430.20001220703</ele>
        <time>2011-06-13T10:11:55.000Z</time>
      </trkpt>
      <trkpt lat="45.52196" lon="6.14373">
        <ele>432.20001220703</ele>
        <time>2011-06-13T10:12:10.000Z</time>
      </trkpt>
      <trkpt lat="45.52179" lon="6.14362">
        <ele>434.60000610352</ele>
        <time>2011-06-13T10:12:25.000Z</time>
      </trkpt>
      <trkpt lat="45.5216" lon="6.14335">
        <ele>431.60000610352</ele>
        <time>2011-06-13T10:12:40.000Z</time>
      </trkpt>
      <trkpt lat="45.52158" lon="6.1433">
        <ele>431.20001220703</ele>
        <time>2011-06-13T10:12:43.000Z</time>
      </trkpt>
      <trkpt lat="45.52147" lon="6.14327">
        <ele>431.20001220703</ele>
        <time>2011-06-13T10:12:47.000Z</time>
      </trkpt>
      <trkpt lat="45.52135" lon="6.14307">
        <ele>432.20001220703</ele>
        <time>2011-06-13T10:12:56.000Z</time>
      </trkpt>
      <trkpt lat="45.52127" lon="6.14283">
        <ele>438.39999389648</ele>
        <time>2011-06-13T10:13:09.000Z</time>
      </trkpt>
      <trkpt lat="45.52119" lon="6.14242">
        <ele>445.60000610352</ele>
        <time>2011-06-13T10:13:19.000Z</time>
      </trkpt>
      <trkpt lat="45.52119" lon="6.14238">
        <ele>447</ele>
        <time>2011-06-13T10:13:20.000Z</time>
      </trkpt>
      <trkpt lat="45.5211" lon="6.14195">
        <ele>449</ele>
        <time>2011-06-13T10:13:28.000Z</time>
      </trkpt>
      <trkpt lat="45.52111" lon="6.14184">
        <ele>451</ele>
        <time>2011-06-13T10:13:32.000Z</time>
      </trkpt>
      <trkpt lat="45.52099" lon="6.14152">
        <ele>454.79998779297</ele>
        <time>2011-06-13T10:13:42.000Z</time>
      </trkpt>
      <trkpt lat="45.5209" lon="6.14116">
        <ele>456.60000610352</ele>
        <time>2011-06-13T10:13:56.000Z</time>
      </trkpt>
      <trkpt lat="45.52083" lon="6.14102">
        <ele>453.20001220703</ele>
        <time>2011-06-13T10:14:00.000Z</time>
      </trkpt>
      <trkpt lat="45.52072" lon="6.14032">
        <ele>449.39999389648</ele>
        <time>2011-06-13T10:14:10.000Z</time>
      </trkpt>
      <trkpt lat="45.5208" lon="6.13987">
        <ele>451</ele>
        <time>2011-06-13T10:14:22.000Z</time>
      </trkpt>
      <trkpt lat="45.52083" lon="6.13974">
        <ele>447.60000610352</ele>
        <time>2011-06-13T10:14:28.000Z</time>
      </trkpt>
      <trkpt lat="45.5208" lon="6.13931">
        <ele>430.79998779297</ele>
        <time>2011-06-13T10:14:44.000Z</time>
      </trkpt>
      <trkpt lat="45.52075" lon="6.1391">
        <ele>416.20001220703</ele>
        <time>2011-06-13T10:15:07.000Z</time>
      </trkpt>
      <trkpt lat="45.52086" lon="6.139">
        <ele>396.20001220703</ele>
        <time>2011-06-13T10:15:29.000Z</time>
      </trkpt>
      <trkpt lat="45.5208" lon="6.1389">
        <ele>376.39999389648</ele>
        <time>2011-06-13T10:15:46.000Z</time>
      </trkpt>
      <trkpt lat="45.52076" lon="6.13888">
        <ele>367.20001220703</ele>
        <time>2011-06-13T10:16:11.000Z</time>
      </trkpt>
      <trkpt lat="45.52073" lon="6.13891">
        <ele>349.39999389648</ele>
        <time>2011-06-13T10:16:31.000Z</time>
      </trkpt>
      <trkpt lat="45.52069" lon="6.1387">
        <ele>343.20001220703</ele>
        <time>2011-06-13T10:16:50.000Z</time>
      </trkpt>
      <trkpt lat="45.52068" lon="6.13868">
        <ele>341.39999389648</ele>
        <time>2011-06-13T10:16:54.000Z</time>
      </trkpt>
      <trkpt lat="45.52068" lon="6.13859">
        <ele>338.39999389648</ele>
        <time>2011-06-13T10:17:00.000Z</time>
      </trkpt>
      <trkpt lat="45.52072" lon="6.13845">
        <ele>333.60000610352</ele>
        <time>2011-06-13T10:17:04.000Z</time>
      </trkpt>
      <trkpt lat="45.52072" lon="6.13835">
        <ele>329.20001220703</ele>
        <time>2011-06-13T10:17:09.000Z</time>
      </trkpt>
      <trkpt lat="45.52072" lon="6.13818">
        <ele>325.39999389648</ele>
        <time>2011-06-13T10:17:15.000Z</time>
      </trkpt>
      <trkpt lat="45.52072" lon="6.13808">
        <ele>321.60000610352</ele>
        <time>2011-06-13T10:17:23.000Z</time>
      </trkpt>
      <trkpt lat="45.52068" lon="6.13806">
        <ele>321.60000610352</ele>
        <time>2011-06-13T10:17:26.000Z</time>
      </trkpt>
      <trkpt lat="45.52061" lon="6.13797">
        <ele>322.60000610352</ele>
        <time>2011-06-13T10:17:31.000Z</time>
      </trkpt>
      <trkpt lat="45.5205" lon="6.13782">
        <ele>324</ele>
        <time>2011-06-13T10:17:36.000Z</time>
      </trkpt>
      <trkpt lat="45.52012" lon="6.13753">
        <ele>326.39999389648</ele>
        <time>2011-06-13T10:17:48.000Z</time>
      </trkpt>
      <trkpt lat="45.52007" lon="6.13748">
        <ele>326.79998779297</ele>
        <time>2011-06-13T10:17:50.000Z</time>
      </trkpt>
      <trkpt lat="45.51992" lon="6.13727">
        <ele>328.79998779297</ele>
        <time>2011-06-13T10:17:58.000Z</time>
      </trkpt>
      <trkpt lat="45.51984" lon="6.13716">
        <ele>330.20001220703</ele>
        <time>2011-06-13T10:18:02.000Z</time>
      </trkpt>
      <trkpt lat="45.51972" lon="6.13673">
        <ele>334.20001220703</ele>
        <time>2011-06-13T10:18:12.000Z</time>
      </trkpt>
      <trkpt lat="45.51957" lon="6.13662">
        <ele>334.60000610352</ele>
        <time>2011-06-13T10:18:16.000Z</time>
      </trkpt>
      <trkpt lat="45.51936" lon="6.13622">
        <ele>334.20001220703</ele>
        <time>2011-06-13T10:18:27.000Z</time>
      </trkpt>
      <trkpt lat="45.51932" lon="6.13603">
        <ele>333.60000610352</ele>
        <time>2011-06-13T10:18:31.000Z</time>
      </trkpt>
      <trkpt lat="45.51925" lon="6.13581">
        <ele>334.20001220703</ele>
        <time>2011-06-13T10:18:40.000Z</time>
      </trkpt>
      <trkpt lat="45.51915" lon="6.13569">
        <ele>339.79998779297</ele>
        <time>2011-06-13T10:18:45.000Z</time>
      </trkpt>
      <trkpt lat="45.51897" lon="6.13533">
        <ele>354.79998779297</ele>
        <time>2011-06-13T10:18:56.000Z</time>
      </trkpt>
      <trkpt lat="45.51894" lon="6.13499">
        <ele>361</ele>
        <time>2011-06-13T10:19:09.000Z</time>
      </trkpt>
      <trkpt lat="45.51889" lon="6.13491">
        <ele>361.39999389648</ele>
        <time>2011-06-13T10:19:28.000Z</time>
      </trkpt>
      <trkpt lat="45.5189" lon="6.13484">
        <ele>362</ele>
        <time>2011-06-13T10:19:32.000Z</time>
      </trkpt>
      <trkpt lat="45.51894" lon="6.134">
        <ele>341.79998779297</ele>
        <time>2011-06-13T10:19:42.000Z</time>
      </trkpt>
      <trkpt lat="45.51899" lon="6.13339">
        <ele>325</ele>
        <time>2011-06-13T10:19:52.000Z</time>
      </trkpt>
      <trkpt lat="45.51898" lon="6.13324">
        <ele>320.20001220703</ele>
        <time>2011-06-13T10:19:55.000Z</time>
      </trkpt>
      <trkpt lat="45.51901" lon="6.13275">
        <ele>302.79998779297</ele>
        <time>2011-06-13T10:20:07.000Z</time>
      </trkpt>
      <trkpt lat="45.51896" lon="6.1327">
        <ele>295.60000610352</ele>
        <time>2011-06-13T10:20:31.000Z</time>
      </trkpt>
      <trkpt lat="45.51899" lon="6.13267">
        <ele>293.79998779297</ele>
        <time>2011-06-13T10:20:54.000Z</time>
      </trkpt>
      <trkpt lat="45.51921" lon="6.13262">
        <ele>288</ele>
        <time>2011-06-13T10:21:04.000Z</time>
      </trkpt>
      <trkpt lat="45.51924" lon="6.13263">
        <ele>287</ele>
        <time>2011-06-13T10:21:06.000Z</time>
      </trkpt>
      <trkpt lat="45.51945" lon="6.13252">
        <ele>288</ele>
        <time>2011-06-13T10:21:16.000Z</time>
      </trkpt>
      <trkpt lat="45.5197" lon="6.13244">
        <ele>294.60000610352</ele>
        <time>2011-06-13T10:21:25.000Z</time>
      </trkpt>
      <trkpt lat="45.51973" lon="6.13244">
        <ele>296.20001220703</ele>
        <time>2011-06-13T10:21:26.000Z</time>
      </trkpt>
      <trkpt lat="45.51995" lon="6.13244">
        <ele>302.39999389648</ele>
        <time>2011-06-13T10:21:34.000Z</time>
      </trkpt>
      <trkpt lat="45.52011" lon="6.13243">
        <ele>306.20001220703</ele>
        <time>2011-06-13T10:21:52.000Z</time>
      </trkpt>
      <trkpt lat="45.52037" lon="6.13231">
        <ele>305.20001220703</ele>
        <time>2011-06-13T10:22:10.000Z</time>
      </trkpt>
      <trkpt lat="45.52103" lon="6.13226">
        <ele>291.79998779297</ele>
        <time>2011-06-13T10:22:26.000Z</time>
      </trkpt>
      <trkpt lat="45.52151" lon="6.13223">
        <ele>287.39999389648</ele>
        <time>2011-06-13T10:22:40.000Z</time>
      </trkpt>
      <trkpt lat="45.52166" lon="6.13219">
        <ele>290.39999389648</ele>
        <time>2011-06-13T10:22:48.000Z</time>
      </trkpt>
      <trkpt lat="45.52169" lon="6.13215">
        <ele>290.79998779297</ele>
        <time>2011-06-13T10:22:51.000Z</time>
      </trkpt>
      <trkpt lat="45.52155" lon="6.13197">
        <ele>291.39999389648</ele>
        <time>2011-06-13T10:23:01.000Z</time>
      </trkpt>
      <trkpt lat="45.5215" lon="6.13196">
        <ele>291.79998779297</ele>
        <time>2011-06-13T10:23:02.000Z</time>
      </trkpt>
      <trkpt lat="45.52129" lon="6.13183">
        <ele>292.20001220703</ele>
        <time>2011-06-13T10:23:07.000Z</time>
      </trkpt>
      <trkpt lat="45.52109" lon="6.13156">
        <ele>292.79998779297</ele>
        <time>2011-06-13T10:23:11.000Z</time>
      </trkpt>
      <trkpt lat="45.52109" lon="6.13135">
        <ele>295.20001220703</ele>
        <time>2011-06-13T10:23:17.000Z</time>
      </trkpt>
      <trkpt lat="45.52145" lon="6.13108">
        <ele>302.79998779297</ele>
        <time>2011-06-13T10:23:31.000Z</time>
      </trkpt>
      <trkpt lat="45.52174" lon="6.13086">
        <ele>305.20001220703</ele>
        <time>2011-06-13T10:23:44.000Z</time>
      </trkpt>
      <trkpt lat="45.52195" lon="6.13067">
        <ele>307.60000610352</ele>
        <time>2011-06-13T10:23:55.000Z</time>
      </trkpt>
      <trkpt lat="45.52214" lon="6.13045">
        <ele>309.60000610352</ele>
        <time>2011-06-13T10:24:06.000Z</time>
      </trkpt>
      <trkpt lat="45.52226" lon="6.13025">
        <ele>312</ele>
        <time>2011-06-13T10:24:15.000Z</time>
      </trkpt>
      <trkpt lat="45.52234" lon="6.13016">
        <ele>310.60000610352</ele>
        <time>2011-06-13T10:24:23.000Z</time>
      </trkpt>
      <trkpt lat="45.52238" lon="6.13019">
        <ele>308.60000610352</ele>
        <time>2011-06-13T10:24:35.000Z</time>
      </trkpt>
      <trkpt lat="45.52239" lon="6.13022">
        <ele>307.20001220703</ele>
        <time>2011-06-13T10:25:13.000Z</time>
      </trkpt>
      <trkpt lat="45.52252" lon="6.13002">
        <ele>307.60000610352</ele>
        <time>2011-06-13T10:25:23.000Z</time>
      </trkpt>
      <trkpt lat="45.52262" lon="6.12987">
        <ele>311</ele>
        <time>2011-06-13T10:25:30.000Z</time>
      </trkpt>
      <trkpt lat="45.52267" lon="6.12985">
        <ele>314.39999389648</ele>
        <time>2011-06-13T10:25:34.000Z</time>
      </trkpt>
      <trkpt lat="45.52274" lon="6.12987">
        <ele>325</ele>
        <time>2011-06-13T10:25:40.000Z</time>
      </trkpt>
      <trkpt lat="45.52279" lon="6.12981">
        <ele>332.60000610352</ele>
        <time>2011-06-13T10:25:46.000Z</time>
      </trkpt>
      <trkpt lat="45.52285" lon="6.12981">
        <ele>338</ele>
        <time>2011-06-13T10:25:51.000Z</time>
      </trkpt>
      <trkpt lat="45.5229" lon="6.12979">
        <ele>342.79998779297</ele>
        <time>2011-06-13T10:25:56.000Z</time>
      </trkpt>
      <trkpt lat="45.52293" lon="6.12978">
        <ele>345.20001220703</ele>
        <time>2011-06-13T10:25:58.000Z</time>
      </trkpt>
      <trkpt lat="45.52311" lon="6.12971">
        <ele>352.39999389648</ele>
        <time>2011-06-13T10:26:05.000Z</time>
      </trkpt>
      <trkpt lat="45.52314" lon="6.12968">
        <ele>354.20001220703</ele>
        <time>2011-06-13T10:26:07.000Z</time>
      </trkpt>
      <trkpt lat="45.52326" lon="6.1296">
        <ele>364.79998779297</ele>
        <time>2011-06-13T10:26:13.000Z</time>
      </trkpt>
      <trkpt lat="45.52343" lon="6.12952">
        <ele>380.20001220703</ele>
        <time>2011-06-13T10:26:20.000Z</time>
      </trkpt>
      <trkpt lat="45.5236" lon="6.12913">
        <ele>385.60000610352</ele>
        <time>2011-06-13T10:26:25.000Z</time>
      </trkpt>
      <trkpt lat="45.52367" lon="6.12912">
        <ele>393.60000610352</ele>
        <time>2011-06-13T10:26:30.000Z</time>
      </trkpt>
      <trkpt lat="45.52371" lon="6.12913">
        <ele>397</ele>
        <time>2011-06-13T10:26:32.000Z</time>
      </trkpt>
      <trkpt lat="45.52384" lon="6.12913">
        <ele>407.20001220703</ele>
        <time>2011-06-13T10:26:37.000Z</time>
      </trkpt>
      <trkpt lat="45.52398" lon="6.12927">
        <ele>416.79998779297</ele>
        <time>2011-06-13T10:26:42.000Z</time>
      </trkpt>
      <trkpt lat="45.52404" lon="6.12923">
        <ele>421.60000610352</ele>
        <time>2011-06-13T10:26:46.000Z</time>
      </trkpt>
      <trkpt lat="45.5242" lon="6.12935">
        <ele>433.20001220703</ele>
        <time>2011-06-13T10:26:54.000Z</time>
      </trkpt>
      <trkpt lat="45.52442" lon="6.12952">
        <ele>444.20001220703</ele>
        <time>2011-06-13T10:27:02.000Z</time>
      </trkpt>
      <trkpt lat="45.52461" lon="6.12957">
        <ele>450.39999389648</ele>
        <time>2011-06-13T10:27:08.000Z</time>
      </trkpt>
      <trkpt lat="45.52459" lon="6.1296">
        <ele>453.79998779297</ele>
        <time>2011-06-13T10:27:12.000Z</time>
      </trkpt>
      <trkpt lat="45.52556" lon="6.12943">
        <ele>458.60000610352</ele>
        <time>2011-06-13T10:27:20.000Z</time>
      </trkpt>
      <trkpt lat="45.52593" lon="6.12956">
        <ele>464.39999389648</ele>
        <time>2011-06-13T10:27:30.000Z</time>
      </trkpt>
      <trkpt lat="45.52597" lon="6.12955">
        <ele>465.39999389648</ele>
        <time>2011-06-13T10:27:31.000Z</time>
      </trkpt>
      <trkpt lat="45.52634" lon="6.12947">
        <ele>478.79998779297</ele>
        <time>2011-06-13T10:27:42.000Z</time>
      </trkpt>
      <trkpt lat="45.52645" lon="6.12942">
        <ele>487</ele>
        <time>2011-06-13T10:27:55.000Z</time>
      </trkpt>
      <trkpt lat="45.52668" lon="6.12937">
        <ele>490.39999389648</ele>
        <time>2011-06-13T10:28:12.000Z</time>
      </trkpt>
      <trkpt lat="45.52708" lon="6.12985">
        <ele>473.39999389648</ele>
        <time>2011-06-13T10:28:27.000Z</time>
      </trkpt>
      <trkpt lat="45.52717" lon="6.13">
        <ele>465.79998779297</ele>
        <time>2011-06-13T10:28:33.000Z</time>
      </trkpt>
      <trkpt lat="45.5273" lon="6.13001">
        <ele>445.60000610352</ele>
        <time>2011-06-13T10:28:40.000Z</time>
      </trkpt>
      <trkpt lat="45.52734" lon="6.13006">
        <ele>439.79998779297</ele>
        <time>2011-06-13T10:28:44.000Z</time>
      </trkpt>
      <trkpt lat="45.52737" lon="6.1303">
        <ele>437</ele>
        <time>2011-06-13T10:28:54.000Z</time>
      </trkpt>
      <trkpt lat="45.52742" lon="6.1306">
        <ele>438</ele>
        <time>2011-06-13T10:29:04.000Z</time>
      </trkpt>
      <trkpt lat="45.5275" lon="6.13093">
        <ele>440.79998779297</ele>
        <time>2011-06-13T10:29:13.000Z</time>
      </trkpt>
      <trkpt lat="45.52756" lon="6.13127">
        <ele>441.79998779297</ele>
        <time>2011-06-13T10:29:29.000Z</time>
      </trkpt>
      <trkpt lat="45.52759" lon="6.13126">
        <ele>442.79998779297</ele>
        <time>2011-06-13T10:29:32.000Z</time>
      </trkpt>
      <trkpt lat="45.52769" lon="6.13137">
        <ele>440.79998779297</ele>
        <time>2011-06-13T10:29:37.000Z</time>
      </trkpt>
      <trkpt lat="45.52765" lon="6.13137">
        <ele>437.39999389648</ele>
        <time>2011-06-13T10:29:41.000Z</time>
      </trkpt>
      <trkpt lat="45.52752" lon="6.13141">
        <ele>438.79998779297</ele>
        <time>2011-06-13T10:29:50.000Z</time>
      </trkpt>
      <trkpt lat="45.52751" lon="6.1314">
        <ele>439.79998779297</ele>
        <time>2011-06-13T10:29:51.000Z</time>
      </trkpt>
      <trkpt lat="45.52737" lon="6.13122">
        <ele>450</ele>
        <time>2011-06-13T10:30:01.000Z</time>
      </trkpt>
      <trkpt lat="45.52733" lon="6.13111">
        <ele>453.20001220703</ele>
        <time>2011-06-13T10:30:05.000Z</time>
      </trkpt>
      <trkpt lat="45.52744" lon="6.1312">
        <ele>455.20001220703</ele>
        <time>2011-06-13T10:30:09.000Z</time>
      </trkpt>
      <trkpt lat="45.52756" lon="6.13109">
        <ele>454.79998779297</ele>
        <time>2011-06-13T10:30:15.000Z</time>
      </trkpt>
      <trkpt lat="45.52769" lon="6.13086">
        <ele>452.79998779297</ele>
        <time>2011-06-13T10:30:24.000Z</time>
      </trkpt>
      <trkpt lat="45.52795" lon="6.13066">
        <ele>451.79998779297</ele>
        <time>2011-06-13T10:30:36.000Z</time>
      </trkpt>
      <trkpt lat="45.52801" lon="6.13061">
        <ele>450</ele>
        <time>2011-06-13T10:30:40.000Z</time>
      </trkpt>
      <trkpt lat="45.5281" lon="6.13059">
        <ele>447.60000610352</ele>
        <time>2011-06-13T10:30:43.000Z</time>
      </trkpt>
      <trkpt lat="45.52825" lon="6.13051">
        <ele>446</ele>
        <time>2011-06-13T10:30:48.000Z</time>
      </trkpt>
      <trkpt lat="45.52836" lon="6.13046">
        <ele>444.60000610352</ele>
        <time>2011-06-13T10:30:50.000Z</time>
      </trkpt>
      <trkpt lat="45.5288" lon="6.13038">
        <ele>445.20001220703</ele>
        <time>2011-06-13T10:31:02.000Z</time>
      </trkpt>
      <trkpt lat="45.52901" lon="6.13028">
        <ele>441.20001220703</ele>
        <time>2011-06-13T10:31:13.000Z</time>
      </trkpt>
      <trkpt lat="45.5291" lon="6.13024">
        <ele>441.20001220703</ele>
        <time>2011-06-13T10:31:18.000Z</time>
      </trkpt>
      <trkpt lat="45.52939" lon="6.13004">
        <ele>445.60000610352</ele>
        <time>2011-06-13T10:31:25.000Z</time>
      </trkpt>
      <trkpt lat="45.52959" lon="6.13011">
        <ele>455.20001220703</ele>
        <time>2011-06-13T10:31:33.000Z</time>
      </trkpt>
      <trkpt lat="45.52964" lon="6.13016">
        <ele>456.60000610352</ele>
        <time>2011-06-13T10:31:35.000Z</time>
      </trkpt>
      <trkpt lat="45.52982" lon="6.13028">
        <ele>461.39999389648</ele>
        <time>2011-06-13T10:31:43.000Z</time>
      </trkpt>
      <trkpt lat="45.53019" lon="6.13055">
        <ele>455.60000610352</ele>
        <time>2011-06-13T10:31:54.000Z</time>
      </trkpt>
      <trkpt lat="45.53032" lon="6.13069">
        <ele>443.60000610352</ele>
        <time>2011-06-13T10:31:58.000Z</time>
      </trkpt>
      <trkpt lat="45.5306" lon="6.13104">
        <ele>415.79998779297</ele>
        <time>2011-06-13T10:32:09.000Z</time>
      </trkpt>
      <trkpt lat="45.53062" lon="6.13103">
        <ele>413.79998779297</ele>
        <time>2011-06-13T10:32:10.000Z</time>
      </trkpt>
      <trkpt lat="45.53071" lon="6.13104">
        <ele>409.60000610352</ele>
        <time>2011-06-13T10:32:14.000Z</time>
      </trkpt>
      <trkpt lat="45.53106" lon="6.13144">
        <ele>407.20001220703</ele>
        <time>2011-06-13T10:32:24.000Z</time>
      </trkpt>
      <trkpt lat="45.53125" lon="6.13198">
        <ele>402.79998779297</ele>
        <time>2011-06-13T10:32:35.000Z</time>
      </trkpt>
      <trkpt lat="45.53146" lon="6.13264">
        <ele>390.79998779297</ele>
        <time>2011-06-13T10:32:48.000Z</time>
      </trkpt>
      <trkpt lat="45.53148" lon="6.13271">
        <ele>386.39999389648</ele>
        <time>2011-06-13T10:33:04.000Z</time>
      </trkpt>
      <trkpt lat="45.53157" lon="6.13283">
        <ele>387</ele>
        <time>2011-06-13T10:33:14.000Z</time>
      </trkpt>
      <trkpt lat="45.53188" lon="6.13354">
        <ele>384.60000610352</ele>
        <time>2011-06-13T10:33:26.000Z</time>
      </trkpt>
      <trkpt lat="45.53199" lon="6.13379">
        <ele>384.60000610352</ele>
        <time>2011-06-13T10:33:30.000Z</time>
      </trkpt>
      <trkpt lat="45.53211" lon="6.13401">
        <ele>385</ele>
        <time>2011-06-13T10:33:34.000Z</time>
      </trkpt>
      <trkpt lat="45.53217" lon="6.13419">
        <ele>385.60000610352</ele>
        <time>2011-06-13T10:33:37.000Z</time>
      </trkpt>
      <trkpt lat="45.53239" lon="6.1346">
        <ele>388</ele>
        <time>2011-06-13T10:33:45.000Z</time>
      </trkpt>
      <trkpt lat="45.53256" lon="6.13495">
        <ele>390.39999389648</ele>
        <time>2011-06-13T10:33:51.000Z</time>
      </trkpt>
      <trkpt lat="45.5326" lon="6.13508">
        <ele>390.79998779297</ele>
        <time>2011-06-13T10:33:53.000Z</time>
      </trkpt>
      <trkpt lat="45.53271" lon="6.13541">
        <ele>391.79998779297</ele>
        <time>2011-06-13T10:33:58.000Z</time>
      </trkpt>
      <trkpt lat="45.53276" lon="6.13571">
        <ele>390.79998779297</ele>
        <time>2011-06-13T10:34:02.000Z</time>
      </trkpt>
      <trkpt lat="45.53293" lon="6.13671">
        <ele>391.20001220703</ele>
        <time>2011-06-13T10:34:13.000Z</time>
      </trkpt>
      <trkpt lat="45.53317" lon="6.13745">
        <ele>393.60000610352</ele>
        <time>2011-06-13T10:34:22.000Z</time>
      </trkpt>
      <trkpt lat="45.5333" lon="6.13781">
        <ele>393.60000610352</ele>
        <time>2011-06-13T10:34:27.000Z</time>
      </trkpt>
      <trkpt lat="45.53342" lon="6.13809">
        <ele>393.20001220703</ele>
        <time>2011-06-13T10:34:31.000Z</time>
      </trkpt>
      <trkpt lat="45.53358" lon="6.13835">
        <ele>392.20001220703</ele>
        <time>2011-06-13T10:34:35.000Z</time>
      </trkpt>
      <trkpt lat="45.53373" lon="6.13869">
        <ele>392.79998779297</ele>
        <time>2011-06-13T10:34:40.000Z</time>
      </trkpt>
      <trkpt lat="45.53398" lon="6.13904">
        <ele>393.20001220703</ele>
        <time>2011-06-13T10:34:45.000Z</time>
      </trkpt>
      <trkpt lat="45.53416" lon="6.13922">
        <ele>392.20001220703</ele>
        <time>2011-06-13T10:34:48.000Z</time>
      </trkpt>
      <trkpt lat="45.53471" lon="6.13982">
        <ele>388</ele>
        <time>2011-06-13T10:34:58.000Z</time>
      </trkpt>
      <trkpt lat="45.53534" lon="6.14035">
        <ele>387.39999389648</ele>
        <time>2011-06-13T10:35:09.000Z</time>
      </trkpt>
      <trkpt lat="45.53551" lon="6.14058">
        <ele>387.39999389648</ele>
        <time>2011-06-13T10:35:13.000Z</time>
      </trkpt>
      <trkpt lat="45.53583" lon="6.14089">
        <ele>387.39999389648</ele>
        <time>2011-06-13T10:35:21.000Z</time>
      </trkpt>
      <trkpt lat="45.53604" lon="6.14106">
        <ele>389.79998779297</ele>
        <time>2011-06-13T10:35:26.000Z</time>
      </trkpt>
      <trkpt lat="45.53623" lon="6.14126">
        <ele>390.79998779297</ele>
        <time>2011-06-13T10:35:30.000Z</time>
      </trkpt>
      <trkpt lat="45.53645" lon="6.14152">
        <ele>392.79998779297</ele>
        <time>2011-06-13T10:35:39.000Z</time>
      </trkpt>
      <trkpt lat="45.53647" lon="6.14152">
        <ele>395.20001220703</ele>
        <time>2011-06-13T10:35:46.000Z</time>
      </trkpt>
      <trkpt lat="45.53642" lon="6.14154">
        <ele>398.60000610352</ele>
        <time>2011-06-13T10:35:51.000Z</time>
      </trkpt>
      <trkpt lat="45.53648" lon="6.14147">
        <ele>402.39999389648</ele>
        <time>2011-06-13T10:35:57.000Z</time>
      </trkpt>
      <trkpt lat="45.53655" lon="6.14141">
        <ele>403.39999389648</ele>
        <time>2011-06-13T10:36:00.000Z</time>
      </trkpt>
      <trkpt lat="45.53658" lon="6.1414">
        <ele>404.20001220703</ele>
        <time>2011-06-13T10:36:03.000Z</time>
      </trkpt>
      <trkpt lat="45.53664" lon="6.14125">
        <ele>410.60000610352</ele>
        <time>2011-06-13T10:36:10.000Z</time>
      </trkpt>
      <trkpt lat="45.53672" lon="6.14108">
        <ele>418.60000610352</ele>
        <time>2011-06-13T10:36:18.000Z</time>
      </trkpt>
      <trkpt lat="45.53674" lon="6.14096">
        <ele>421</ele>
        <time>2011-06-13T10:36:20.000Z</time>
      </trkpt>
      <trkpt lat="45.53651" lon="6.14055">
        <ele>427.39999389648</ele>
        <time>2011-06-13T10:36:27.000Z</time>
      </trkpt>
      <trkpt lat="45.53666" lon="6.14029">
        <ele>430.20001220703</ele>
        <time>2011-06-13T10:36:30.000Z</time>
      </trkpt>
      <trkpt lat="45.53682" lon="6.1402">
        <ele>432.20001220703</ele>
        <time>2011-06-13T10:36:32.000Z</time>
      </trkpt>
      <trkpt lat="45.53716" lon="6.1398">
        <ele>441.79998779297</ele>
        <time>2011-06-13T10:36:42.000Z</time>
      </trkpt>
      <trkpt lat="45.53727" lon="6.13945">
        <ele>447</ele>
        <time>2011-06-13T10:36:59.000Z</time>
      </trkpt>
      <trkpt lat="45.53761" lon="6.13912">
        <ele>447</ele>
        <time>2011-06-13T10:37:07.000Z</time>
      </trkpt>
      <trkpt lat="45.53773" lon="6.13882">
        <ele>450.39999389648</ele>
        <time>2011-06-13T10:37:13.000Z</time>
      </trkpt>
      <trkpt lat="45.53781" lon="6.13857">
        <ele>451.39999389648</ele>
        <time>2011-06-13T10:37:17.000Z</time>
      </trkpt>
      <trkpt lat="45.53799" lon="6.13836">
        <ele>454.20001220703</ele>
        <time>2011-06-13T10:37:21.000Z</time>
      </trkpt>
      <trkpt lat="45.53806" lon="6.13832">
        <ele>455.60000610352</ele>
        <time>2011-06-13T10:37:23.000Z</time>
      </trkpt>
      <trkpt lat="45.53817" lon="6.13821">
        <ele>463</ele>
        <time>2011-06-13T10:37:26.000Z</time>
      </trkpt>
      <trkpt lat="45.5383" lon="6.13809">
        <ele>473</ele>
        <time>2011-06-13T10:37:36.000Z</time>
      </trkpt>
      <trkpt lat="45.53836" lon="6.13811">
        <ele>475.39999389648</ele>
        <time>2011-06-13T10:37:38.000Z</time>
      </trkpt>
      <trkpt lat="45.53847" lon="6.13813">
        <ele>488</ele>
        <time>2011-06-13T10:37:42.000Z</time>
      </trkpt>
      <trkpt lat="45.53886" lon="6.13819">
        <ele>504.20001220703</ele>
        <time>2011-06-13T10:37:52.000Z</time>
      </trkpt>
      <trkpt lat="45.53899" lon="6.1383">
        <ele>506.20001220703</ele>
        <time>2011-06-13T10:37:56.000Z</time>
      </trkpt>
      <trkpt lat="45.53906" lon="6.13795">
        <ele>506.60000610352</ele>
        <time>2011-06-13T10:38:01.000Z</time>
      </trkpt>
      <trkpt lat="45.53919" lon="6.13814">
        <ele>506.20001220703</ele>
        <time>2011-06-13T10:38:10.000Z</time>
      </trkpt>
      <trkpt lat="45.53933" lon="6.13847">
        <ele>503.79998779297</ele>
        <time>2011-06-13T10:38:18.000Z</time>
      </trkpt>
      <trkpt lat="45.53935" lon="6.13853">
        <ele>503.79998779297</ele>
        <time>2011-06-13T10:38:19.000Z</time>
      </trkpt>
      <trkpt lat="45.53973" lon="6.13922">
        <ele>500.79998779297</ele>
        <time>2011-06-13T10:38:30.000Z</time>
      </trkpt>
      <trkpt lat="45.5399" lon="6.13949">
        <ele>500.39999389648</ele>
        <time>2011-06-13T10:38:35.000Z</time>
      </trkpt>
      <trkpt lat="45.54022" lon="6.14016">
        <ele>501.39999389648</ele>
        <time>2011-06-13T10:38:44.000Z</time>
      </trkpt>
      <trkpt lat="45.54045" lon="6.1406">
        <ele>501.79998779297</ele>
        <time>2011-06-13T10:38:50.000Z</time>
      </trkpt>
      <trkpt lat="45.54066" lon="6.14118">
        <ele>503.20001220703</ele>
        <time>2011-06-13T10:38:57.000Z</time>
      </trkpt>
      <trkpt lat="45.54078" lon="6.14139">
        <ele>503.20001220703</ele>
        <time>2011-06-13T10:39:00.000Z</time>
      </trkpt>
      <trkpt lat="45.54091" lon="6.14167">
        <ele>504.79998779297</ele>
        <time>2011-06-13T10:39:04.000Z</time>
      </trkpt>
      <trkpt lat="45.54126" lon="6.14228">
        <ele>508</ele>
        <time>2011-06-13T10:39:13.000Z</time>
      </trkpt>
      <trkpt lat="45.54129" lon="6.14236">
        <ele>508.60000610352</ele>
        <time>2011-06-13T10:39:14.000Z</time>
      </trkpt>
      <trkpt lat="45.54144" lon="6.14264">
        <ele>510</ele>
        <time>2011-06-13T10:39:21.000Z</time>
      </trkpt>
      <trkpt lat="45.5423" lon="6.14379">
        <ele>475</ele>
        <time>2011-06-13T10:39:32.000Z</time>
      </trkpt>
      <trkpt lat="45.54248" lon="6.14431">
        <ele>431.60000610352</ele>
        <time>2011-06-13T10:39:45.000Z</time>
      </trkpt>
      <trkpt lat="45.54266" lon="6.14501">
        <ele>362.39999389648</ele>
        <time>2011-06-13T10:39:55.000Z</time>
      </trkpt>
      <trkpt lat="45.5433" lon="6.14625">
        <ele>335</ele>
        <time>2011-06-13T10:40:12.000Z</time>
      </trkpt>
      <trkpt lat="45.54381" lon="6.14746">
        <ele>318.79998779297</ele>
        <time>2011-06-13T10:40:28.000Z</time>
      </trkpt>
      <trkpt lat="45.54442" lon="6.14899">
        <ele>304.20001220703</ele>
        <time>2011-06-13T10:40:47.000Z</time>
      </trkpt>
      <trkpt lat="45.54501" lon="6.15027">
        <ele>286</ele>
        <time>2011-06-13T10:41:04.000Z</time>
      </trkpt>
      <trkpt lat="45.5456" lon="6.15158">
        <ele>284.20001220703</ele>
        <time>2011-06-13T10:41:25.000Z</time>
      </trkpt>
      <trkpt lat="45.54566" lon="6.1517">
        <ele>284.20001220703</ele>
        <time>2011-06-13T10:41:28.000Z</time>
      </trkpt>
      <trkpt lat="45.54581" lon="6.15157">
        <ele>285.60000610352</ele>
        <time>2011-06-13T10:41:36.000Z</time>
      </trkpt>
      <trkpt lat="45.5459" lon="6.15145">
        <ele>289</ele>
        <time>2011-06-13T10:41:47.000Z</time>
      </trkpt>
      <trkpt lat="45.54591" lon="6.15144">
        <ele>289</ele>
        <time>2011-06-13T10:41:48.000Z</time>
      </trkpt>
      <trkpt lat="45.54613" lon="6.15121">
        <ele>292.20001220703</ele>
        <time>2011-06-13T10:41:59.000Z</time>
      </trkpt>
      <trkpt lat="45.54626" lon="6.15105">
        <ele>297.60000610352</ele>
        <time>2011-06-13T10:42:06.000Z</time>
      </trkpt>
      <trkpt lat="45.54641" lon="6.15095">
        <ele>302.39999389648</ele>
        <time>2011-06-13T10:42:11.000Z</time>
      </trkpt>
      <trkpt lat="45.54647" lon="6.15095">
        <ele>305.20001220703</ele>
        <time>2011-06-13T10:42:15.000Z</time>
      </trkpt>
      <trkpt lat="45.54657" lon="6.1509">
        <ele>306.20001220703</ele>
        <time>2011-06-13T10:42:19.000Z</time>
      </trkpt>
      <trkpt lat="45.54658" lon="6.15091">
        <ele>308.60000610352</ele>
        <time>2011-06-13T10:42:29.000Z</time>
      </trkpt>
      <trkpt lat="45.54668" lon="6.1507">
        <ele>309.60000610352</ele>
        <time>2011-06-13T10:42:33.000Z</time>
      </trkpt>
      <trkpt lat="45.54689" lon="6.15061">
        <ele>321.60000610352</ele>
        <time>2011-06-13T10:42:43.000Z</time>
      </trkpt>
      <trkpt lat="45.54704" lon="6.15039">
        <ele>323.60000610352</ele>
        <time>2011-06-13T10:42:47.000Z</time>
      </trkpt>
      <trkpt lat="45.54732" lon="6.15069">
        <ele>337.39999389648</ele>
        <time>2011-06-13T10:42:55.000Z</time>
      </trkpt>
      <trkpt lat="45.54752" lon="6.15096">
        <ele>334.60000610352</ele>
        <time>2011-06-13T10:42:59.000Z</time>
      </trkpt>
      <trkpt lat="45.54768" lon="6.15127">
        <ele>334.60000610352</ele>
        <time>2011-06-13T10:43:05.000Z</time>
      </trkpt>
      <trkpt lat="45.54775" lon="6.15145">
        <ele>336</ele>
        <time>2011-06-13T10:43:08.000Z</time>
      </trkpt>
      <trkpt lat="45.5479" lon="6.15176">
        <ele>336</ele>
        <time>2011-06-13T10:43:13.000Z</time>
      </trkpt>
      <trkpt lat="45.54817" lon="6.15232">
        <ele>334.60000610352</ele>
        <time>2011-06-13T10:43:21.000Z</time>
      </trkpt>
      <trkpt lat="45.54825" lon="6.15255">
        <ele>333.60000610352</ele>
        <time>2011-06-13T10:43:24.000Z</time>
      </trkpt>
      <trkpt lat="45.54833" lon="6.15296">
        <ele>329.79998779297</ele>
        <time>2011-06-13T10:43:29.000Z</time>
      </trkpt>
      <trkpt lat="45.54854" lon="6.15345">
        <ele>325.39999389648</ele>
        <time>2011-06-13T10:43:35.000Z</time>
      </trkpt>
      <trkpt lat="45.54871" lon="6.15392">
        <ele>321.60000610352</ele>
        <time>2011-06-13T10:43:41.000Z</time>
      </trkpt>
      <trkpt lat="45.54888" lon="6.15446">
        <ele>316.39999389648</ele>
        <time>2011-06-13T10:43:48.000Z</time>
      </trkpt>
      <trkpt lat="45.54895" lon="6.1547">
        <ele>314.79998779297</ele>
        <time>2011-06-13T10:43:51.000Z</time>
      </trkpt>
      <trkpt lat="45.54904" lon="6.15493">
        <ele>313</ele>
        <time>2011-06-13T10:43:54.000Z</time>
      </trkpt>
      <trkpt lat="45.54919" lon="6.15526">
        <ele>309.60000610352</ele>
        <time>2011-06-13T10:43:59.000Z</time>
      </trkpt>
      <trkpt lat="45.5493" lon="6.15574">
        <ele>309.60000610352</ele>
        <time>2011-06-13T10:44:06.000Z</time>
      </trkpt>
      <trkpt lat="45.54938" lon="6.15602">
        <ele>309.60000610352</ele>
        <time>2011-06-13T10:44:10.000Z</time>
      </trkpt>
      <trkpt lat="45.54951" lon="6.1565">
        <ele>308.60000610352</ele>
        <time>2011-06-13T10:44:16.000Z</time>
      </trkpt>
      <trkpt lat="45.54974" lon="6.15715">
        <ele>308.20001220703</ele>
        <time>2011-06-13T10:44:24.000Z</time>
      </trkpt>
      <trkpt lat="45.55006" lon="6.15796">
        <ele>304.20001220703</ele>
        <time>2011-06-13T10:44:34.000Z</time>
      </trkpt>
      <trkpt lat="45.55052" lon="6.15918">
        <ele>297.60000610352</ele>
        <time>2011-06-13T10:44:49.000Z</time>
      </trkpt>
      <trkpt lat="45.55057" lon="6.15933">
        <ele>297.60000610352</ele>
        <time>2011-06-13T10:44:51.000Z</time>
      </trkpt>
      <trkpt lat="45.55074" lon="6.15996">
        <ele>298</ele>
        <time>2011-06-13T10:44:59.000Z</time>
      </trkpt>
      <trkpt lat="45.55082" lon="6.16046">
        <ele>304.79998779297</ele>
        <time>2011-06-13T10:45:07.000Z</time>
      </trkpt>
      <trkpt lat="45.55081" lon="6.16068">
        <ele>309.60000610352</ele>
        <time>2011-06-13T10:45:11.000Z</time>
      </trkpt>
      <trkpt lat="45.55081" lon="6.16075">
        <ele>315.39999389648</ele>
        <time>2011-06-13T10:45:14.000Z</time>
      </trkpt>
      <trkpt lat="45.55105" lon="6.16062">
        <ele>325.39999389648</ele>
        <time>2011-06-13T10:45:23.000Z</time>
      </trkpt>
      <trkpt lat="45.55157" lon="6.16038">
        <ele>315.39999389648</ele>
        <time>2011-06-13T10:45:36.000Z</time>
      </trkpt>
      <trkpt lat="45.5518" lon="6.16028">
        <ele>314</ele>
        <time>2011-06-13T10:45:46.000Z</time>
      </trkpt>
      <trkpt lat="45.55183" lon="6.16031">
        <ele>313.39999389648</ele>
        <time>2011-06-13T10:46:16.000Z</time>
      </trkpt>
      <trkpt lat="45.55197" lon="6.16024">
        <ele>312</ele>
        <time>2011-06-13T10:46:20.000Z</time>
      </trkpt>
      <trkpt lat="45.55256" lon="6.15993">
        <ele>307.20001220703</ele>
        <time>2011-06-13T10:46:29.000Z</time>
      </trkpt>
      <trkpt lat="45.55279" lon="6.1597">
        <ele>305.79998779297</ele>
        <time>2011-06-13T10:46:33.000Z</time>
      </trkpt>
      <trkpt lat="45.55288" lon="6.15954">
        <ele>305.20001220703</ele>
        <time>2011-06-13T10:46:35.000Z</time>
      </trkpt>
      <trkpt lat="45.55313" lon="6.15929">
        <ele>304.20001220703</ele>
        <time>2011-06-13T10:46:39.000Z</time>
      </trkpt>
      <trkpt lat="45.55349" lon="6.15901">
        <ele>302.79998779297</ele>
        <time>2011-06-13T10:46:44.000Z</time>
      </trkpt>
      <trkpt lat="45.55364" lon="6.15882">
        <ele>303.79998779297</ele>
        <time>2011-06-13T10:46:47.000Z</time>
      </trkpt>
      <trkpt lat="45.5539" lon="6.15863">
        <ele>306.60000610352</ele>
        <time>2011-06-13T10:46:51.000Z</time>
      </trkpt>
      <trkpt lat="45.55406" lon="6.15852">
        <ele>309.20001220703</ele>
        <time>2011-06-13T10:46:55.000Z</time>
      </trkpt>
      <trkpt lat="45.55445" lon="6.15821">
        <ele>314.79998779297</ele>
        <time>2011-06-13T10:47:07.000Z</time>
      </trkpt>
      <trkpt lat="45.55487" lon="6.15782">
        <ele>323.60000610352</ele>
        <time>2011-06-13T10:47:19.000Z</time>
      </trkpt>
      <trkpt lat="45.55497" lon="6.15765">
        <ele>330.79998779297</ele>
        <time>2011-06-13T10:47:24.000Z</time>
      </trkpt>
      <trkpt lat="45.55507" lon="6.15767">
        <ele>324.39999389648</ele>
        <time>2011-06-13T10:47:44.000Z</time>
      </trkpt>
      <trkpt lat="45.5551" lon="6.15771">
        <ele>325</ele>
        <time>2011-06-13T10:47:47.000Z</time>
      </trkpt>
      <trkpt lat="45.55522" lon="6.15777">
        <ele>323</ele>
        <time>2011-06-13T10:47:50.000Z</time>
      </trkpt>
      <trkpt lat="45.55543" lon="6.15776">
        <ele>319.60000610352</ele>
        <time>2011-06-13T10:48:00.000Z</time>
      </trkpt>
      <trkpt lat="45.55588" lon="6.15751">
        <ele>313</ele>
        <time>2011-06-13T10:48:16.000Z</time>
      </trkpt>
      <trkpt lat="45.5562" lon="6.1574">
        <ele>309.20001220703</ele>
        <time>2011-06-13T10:48:28.000Z</time>
      </trkpt>
      <trkpt lat="45.5565" lon="6.15739">
        <ele>309.60000610352</ele>
        <time>2011-06-13T10:48:38.000Z</time>
      </trkpt>
      <trkpt lat="45.55664" lon="6.15748">
        <ele>312.39999389648</ele>
        <time>2011-06-13T10:48:45.000Z</time>
      </trkpt>
      <trkpt lat="45.5567" lon="6.15746">
        <ele>311.60000610352</ele>
        <time>2011-06-13T10:48:48.000Z</time>
      </trkpt>
      <trkpt lat="45.55699" lon="6.15792">
        <ele>334.60000610352</ele>
        <time>2011-06-13T10:49:00.000Z</time>
      </trkpt>
      <trkpt lat="45.55724" lon="6.15829">
        <ele>342.79998779297</ele>
        <time>2011-06-13T10:49:11.000Z</time>
      </trkpt>
      <trkpt lat="45.55721" lon="6.15823">
        <ele>345.20001220703</ele>
        <time>2011-06-13T10:49:16.000Z</time>
      </trkpt>
      <trkpt lat="45.55694" lon="6.15816">
        <ele>336.60000610352</ele>
        <time>2011-06-13T10:49:26.000Z</time>
      </trkpt>
      <trkpt lat="45.55676" lon="6.15796">
        <ele>329.79998779297</ele>
        <time>2011-06-13T10:49:31.000Z</time>
      </trkpt>
      <trkpt lat="45.55644" lon="6.15781">
        <ele>315.79998779297</ele>
        <time>2011-06-13T10:49:38.000Z</time>
      </trkpt>
      <trkpt lat="45.55612" lon="6.15776">
        <ele>307.60000610352</ele>
        <time>2011-06-13T10:49:43.000Z</time>
      </trkpt>
      <trkpt lat="45.55603" lon="6.15776">
        <ele>303.39999389648</ele>
        <time>2011-06-13T10:49:45.000Z</time>
      </trkpt>
      <trkpt lat="45.55591" lon="6.15775">
        <ele>298</ele>
        <time>2011-06-13T10:49:49.000Z</time>
      </trkpt>
      <trkpt lat="45.55596" lon="6.15778">
        <ele>291.39999389648</ele>
        <time>2011-06-13T10:49:58.000Z</time>
      </trkpt>
      <trkpt lat="45.55594" lon="6.15768">
        <ele>290.79998779297</ele>
        <time>2011-06-13T10:50:00.000Z</time>
      </trkpt>
      <trkpt lat="45.5559" lon="6.15712">
        <ele>289.79998779297</ele>
        <time>2011-06-13T10:50:08.000Z</time>
      </trkpt>
      <trkpt lat="45.55588" lon="6.15664">
        <ele>289.39999389648</ele>
        <time>2011-06-13T10:50:14.000Z</time>
      </trkpt>
      <trkpt lat="45.55588" lon="6.15648">
        <ele>289.79998779297</ele>
        <time>2011-06-13T10:50:16.000Z</time>
      </trkpt>
      <trkpt lat="45.55587" lon="6.15622">
        <ele>290.39999389648</ele>
        <time>2011-06-13T10:50:20.000Z</time>
      </trkpt>
      <trkpt lat="45.55586" lon="6.15607">
        <ele>290.39999389648</ele>
        <time>2011-06-13T10:50:22.000Z</time>
      </trkpt>
      <trkpt lat="45.55583" lon="6.15581">
        <ele>289.39999389648</ele>
        <time>2011-06-13T10:50:26.000Z</time>
      </trkpt>
      <trkpt lat="45.55582" lon="6.15542">
        <ele>289.39999389648</ele>
        <time>2011-06-13T10:50:31.000Z</time>
      </trkpt>
      <trkpt lat="45.55577" lon="6.15511">
        <ele>290.79998779297</ele>
        <time>2011-06-13T10:50:35.000Z</time>
      </trkpt>
      <trkpt lat="45.55568" lon="6.15446">
        <ele>289.79998779297</ele>
        <time>2011-06-13T10:50:42.000Z</time>
      </trkpt>
      <trkpt lat="45.55562" lon="6.15396">
        <ele>289.79998779297</ele>
        <time>2011-06-13T10:50:47.000Z</time>
      </trkpt>
      <trkpt lat="45.55561" lon="6.15337">
        <ele>285.60000610352</ele>
        <time>2011-06-13T10:50:52.000Z</time>
      </trkpt>
      <trkpt lat="45.55587" lon="6.15304">
        <ele>289.79998779297</ele>
        <time>2011-06-13T10:50:58.000Z</time>
      </trkpt>
      <trkpt lat="45.55593" lon="6.15324">
        <ele>290.79998779297</ele>
        <time>2011-06-13T10:51:03.000Z</time>
      </trkpt>
      <trkpt lat="45.55605" lon="6.1539">
        <ele>296.20001220703</ele>
        <time>2011-06-13T10:51:18.000Z</time>
      </trkpt>
      <trkpt lat="45.55607" lon="6.1539">
        <ele>296.60000610352</ele>
        <time>2011-06-13T10:51:19.000Z</time>
      </trkpt>
      <trkpt lat="45.55619" lon="6.15356">
        <ele>306.20001220703</ele>
        <time>2011-06-13T10:51:30.000Z</time>
      </trkpt>
      <trkpt lat="45.55619" lon="6.15348">
        <ele>309.60000610352</ele>
        <time>2011-06-13T10:51:33.000Z</time>
      </trkpt>
      <trkpt lat="45.55619" lon="6.15344">
        <ele>314.79998779297</ele>
        <time>2011-06-13T10:51:38.000Z</time>
      </trkpt>
      <trkpt lat="45.55625" lon="6.15386">
        <ele>316.39999389648</ele>
        <time>2011-06-13T10:51:47.000Z</time>
      </trkpt>
      <trkpt lat="45.55628" lon="6.15411">
        <ele>316.39999389648</ele>
        <time>2011-06-13T10:51:51.000Z</time>
      </trkpt>
      <trkpt lat="45.55629" lon="6.15425">
        <ele>316.39999389648</ele>
        <time>2011-06-13T10:51:53.000Z</time>
      </trkpt>
      <trkpt lat="45.55629" lon="6.15445">
        <ele>314.79998779297</ele>
        <time>2011-06-13T10:51:56.000Z</time>
      </trkpt>
      <trkpt lat="45.55637" lon="6.15471">
        <ele>313</ele>
        <time>2011-06-13T10:52:06.000Z</time>
      </trkpt>
      <trkpt lat="45.55633" lon="6.15454">
        <ele>314.79998779297</ele>
        <time>2011-06-13T10:52:11.000Z</time>
      </trkpt>
      <trkpt lat="45.55624" lon="6.15386">
        <ele>317.20001220703</ele>
        <time>2011-06-13T10:52:23.000Z</time>
      </trkpt>
      <trkpt lat="45.55625" lon="6.1536">
        <ele>318.79998779297</ele>
        <time>2011-06-13T10:52:29.000Z</time>
      </trkpt>
      <trkpt lat="45.55615" lon="6.15371">
        <ele>315.79998779297</ele>
        <time>2011-06-13T10:52:34.000Z</time>
      </trkpt>
      <trkpt lat="45.55613" lon="6.15382">
        <ele>314</ele>
        <time>2011-06-13T10:52:36.000Z</time>
      </trkpt>
      <trkpt lat="45.55601" lon="6.1539">
        <ele>314.39999389648</ele>
        <time>2011-06-13T10:52:43.000Z</time>
      </trkpt>
      <trkpt lat="45.55598" lon="6.15383">
        <ele>315.39999389648</ele>
        <time>2011-06-13T10:52:44.000Z</time>
      </trkpt>
      <trkpt lat="45.55589" lon="6.15347">
        <ele>317.79998779297</ele>
        <time>2011-06-13T10:52:48.000Z</time>
      </trkpt>
      <trkpt lat="45.55581" lon="6.1532">
        <ele>310</ele>
        <time>2011-06-13T10:52:52.000Z</time>
      </trkpt>
      <trkpt lat="45.55578" lon="6.15299">
        <ele>306.60000610352</ele>
        <time>2011-06-13T10:52:55.000Z</time>
      </trkpt>
      <trkpt lat="45.55578" lon="6.15271">
        <ele>302.39999389648</ele>
        <time>2011-06-13T10:52:59.000Z</time>
      </trkpt>
      <trkpt lat="45.55589" lon="6.15241">
        <ele>302.39999389648</ele>
        <time>2011-06-13T10:53:04.000Z</time>
      </trkpt>
      <trkpt lat="45.55616" lon="6.15232">
        <ele>307.60000610352</ele>
        <time>2011-06-13T10:53:14.000Z</time>
      </trkpt>
      <trkpt lat="45.55621" lon="6.15229">
        <ele>309.60000610352</ele>
        <time>2011-06-13T10:53:19.000Z</time>
      </trkpt>
      <trkpt lat="45.55626" lon="6.15224">
        <ele>312</ele>
        <time>2011-06-13T10:53:23.000Z</time>
      </trkpt>
      <trkpt lat="45.55628" lon="6.15221">
        <ele>313</ele>
        <time>2011-06-13T10:53:25.000Z</time>
      </trkpt>
      <trkpt lat="45.55616" lon="6.15218">
        <ele>318.20001220703</ele>
        <time>2011-06-13T10:53:34.000Z</time>
      </trkpt>
      <trkpt lat="45.55611" lon="6.15227">
        <ele>326.39999389648</ele>
        <time>2011-06-13T10:53:48.000Z</time>
      </trkpt>
      <trkpt lat="45.55609" lon="6.15226">
        <ele>329.20001220703</ele>
        <time>2011-06-13T10:53:53.000Z</time>
      </trkpt>
      <trkpt lat="45.55627" lon="6.15221">
        <ele>331.60000610352</ele>
        <time>2011-06-13T10:53:58.000Z</time>
      </trkpt>
      <trkpt lat="45.55653" lon="6.15214">
        <ele>333.20001220703</ele>
        <time>2011-06-13T10:54:04.000Z</time>
      </trkpt>
      <trkpt lat="45.55694" lon="6.15202">
        <ele>330.79998779297</ele>
        <time>2011-06-13T10:54:15.000Z</time>
      </trkpt>
      <trkpt lat="45.55729" lon="6.15195">
        <ele>346.20001220703</ele>
        <time>2011-06-13T10:54:26.000Z</time>
      </trkpt>
      <trkpt lat="45.55766" lon="6.15189">
        <ele>363.39999389648</ele>
        <time>2011-06-13T10:54:39.000Z</time>
      </trkpt>
      <trkpt lat="45.55797" lon="6.15189">
        <ele>371.20001220703</ele>
        <time>2011-06-13T10:54:50.000Z</time>
      </trkpt>
      <trkpt lat="45.55827" lon="6.15188">
        <ele>379.79998779297</ele>
        <time>2011-06-13T10:55:00.000Z</time>
      </trkpt>
      <trkpt lat="45.55831" lon="6.15187">
        <ele>380.20001220703</ele>
        <time>2011-06-13T10:55:01.000Z</time>
      </trkpt>
      <trkpt lat="45.55845" lon="6.15182">
        <ele>378.79998779297</ele>
        <time>2011-06-13T10:55:06.000Z</time>
      </trkpt>
      <trkpt lat="45.55876" lon="6.15174">
        <ele>378.79998779297</ele>
        <time>2011-06-13T10:55:16.000Z</time>
      </trkpt>
      <trkpt lat="45.55915" lon="6.15152">
        <ele>382.20001220703</ele>
        <time>2011-06-13T10:55:28.000Z</time>
      </trkpt>
      <trkpt lat="45.55958" lon="6.15125">
        <ele>392.79998779297</ele>
        <time>2011-06-13T10:55:41.000Z</time>
      </trkpt>
      <trkpt lat="45.55974" lon="6.15111">
        <ele>399</ele>
        <time>2011-06-13T10:55:46.000Z</time>
      </trkpt>
      <trkpt lat="45.56018" lon="6.15099">
        <ele>403.39999389648</ele>
        <time>2011-06-13T10:55:58.000Z</time>
      </trkpt>
      <trkpt lat="45.56038" lon="6.15087">
        <ele>409</ele>
        <time>2011-06-13T10:56:04.000Z</time>
      </trkpt>
      <trkpt lat="45.56082" lon="6.15065">
        <ele>422.60000610352</ele>
        <time>2011-06-13T10:56:16.000Z</time>
      </trkpt>
      <trkpt lat="45.56128" lon="6.15054">
        <ele>435.60000610352</ele>
        <time>2011-06-13T10:56:28.000Z</time>
      </trkpt>
      <trkpt lat="45.56176" lon="6.15048">
        <ele>432.20001220703</ele>
        <time>2011-06-13T10:56:41.000Z</time>
      </trkpt>
      <trkpt lat="45.56221" lon="6.1505">
        <ele>411.39999389648</ele>
        <time>2011-06-13T10:56:53.000Z</time>
      </trkpt>
      <trkpt lat="45.56248" lon="6.15033">
        <ele>404.79998779297</ele>
        <time>2011-06-13T10:57:02.000Z</time>
      </trkpt>
      <trkpt lat="45.5629" lon="6.14994">
        <ele>398.60000610352</ele>
        <time>2011-06-13T10:57:15.000Z</time>
      </trkpt>
      <trkpt lat="45.56317" lon="6.14969">
        <ele>397</ele>
        <time>2011-06-13T10:57:24.000Z</time>
      </trkpt>
      <trkpt lat="45.56331" lon="6.14965">
        <ele>399</ele>
        <time>2011-06-13T10:57:31.000Z</time>
      </trkpt>
      <trkpt lat="45.56346" lon="6.14968">
        <ele>403.39999389648</ele>
        <time>2011-06-13T10:57:37.000Z</time>
      </trkpt>
      <trkpt lat="45.56393" lon="6.14962">
        <ele>422</ele>
        <time>2011-06-13T10:57:50.000Z</time>
      </trkpt>
      <trkpt lat="45.56417" lon="6.14962">
        <ele>433.60000610352</ele>
        <time>2011-06-13T10:57:58.000Z</time>
      </trkpt>
      <trkpt lat="45.5644" lon="6.14975">
        <ele>449</ele>
        <time>2011-06-13T10:58:09.000Z</time>
      </trkpt>
      <trkpt lat="45.56448" lon="6.14997">
        <ele>460.60000610352</ele>
        <time>2011-06-13T10:58:17.000Z</time>
      </trkpt>
      <trkpt lat="45.5646" lon="6.15024">
        <ele>468.20001220703</ele>
        <time>2011-06-13T10:58:27.000Z</time>
      </trkpt>
      <trkpt lat="45.56482" lon="6.15064">
        <ele>475.39999389648</ele>
        <time>2011-06-13T10:58:39.000Z</time>
      </trkpt>
      <trkpt lat="45.56493" lon="6.1509">
        <ele>481.60000610352</ele>
        <time>2011-06-13T10:58:48.000Z</time>
      </trkpt>
      <trkpt lat="45.56495" lon="6.15094">
        <ele>484</ele>
        <time>2011-06-13T10:58:50.000Z</time>
      </trkpt>
      <trkpt lat="45.56502" lon="6.15102">
        <ele>488.79998779297</ele>
        <time>2011-06-13T10:58:56.000Z</time>
      </trkpt>
      <trkpt lat="45.56524" lon="6.15129">
        <ele>488</ele>
        <time>2011-06-13T10:59:06.000Z</time>
      </trkpt>
      <trkpt lat="45.5654" lon="6.1514">
        <ele>493.20001220703</ele>
        <time>2011-06-13T10:59:12.000Z</time>
      </trkpt>
      <trkpt lat="45.56544" lon="6.15143">
        <ele>497</ele>
        <time>2011-06-13T10:59:15.000Z</time>
      </trkpt>
      <trkpt lat="45.56553" lon="6.15151">
        <ele>504.20001220703</ele>
        <time>2011-06-13T10:59:20.000Z</time>
      </trkpt>
      <trkpt lat="45.56562" lon="6.15151">
        <ele>515.79998779297</ele>
        <time>2011-06-13T10:59:35.000Z</time>
      </trkpt>
      <trkpt lat="45.56569" lon="6.15164">
        <ele>516.79998779297</ele>
        <time>2011-06-13T11:00:04.000Z</time>
      </trkpt>
      <trkpt lat="45.56568" lon="6.1517">
        <ele>515.79998779297</ele>
        <time>2011-06-13T11:00:27.000Z</time>
      </trkpt>
      <trkpt lat="45.56586" lon="6.15186">
        <ele>510.60000610352</ele>
        <time>2011-06-13T11:00:34.000Z</time>
      </trkpt>
      <trkpt lat="45.5659" lon="6.15197">
        <ele>510</ele>
        <time>2011-06-13T11:00:38.000Z</time>
      </trkpt>
      <trkpt lat="45.566" lon="6.15206">
        <ele>509</ele>
        <time>2011-06-13T11:00:44.000Z</time>
      </trkpt>
      <trkpt lat="45.56616" lon="6.15224">
        <ele>509</ele>
        <time>2011-06-13T11:00:55.000Z</time>
      </trkpt>
      <trkpt lat="45.5662" lon="6.1523">
        <ele>510</ele>
        <time>2011-06-13T11:00:58.000Z</time>
      </trkpt>
      <trkpt lat="45.56629" lon="6.15227">
        <ele>511.39999389648</ele>
        <time>2011-06-13T11:01:03.000Z</time>
      </trkpt>
      <trkpt lat="45.56643" lon="6.15229">
        <ele>511.39999389648</ele>
        <time>2011-06-13T11:01:09.000Z</time>
      </trkpt>
      <trkpt lat="45.56663" lon="6.1524">
        <ele>512</ele>
        <time>2011-06-13T11:01:20.000Z</time>
      </trkpt>
      <trkpt lat="45.5669" lon="6.15241">
        <ele>515.40002441406</ele>
        <time>2011-06-13T11:01:31.000Z</time>
      </trkpt>
      <trkpt lat="45.56731" lon="6.15271">
        <ele>489.39999389648</ele>
        <time>2011-06-13T11:01:45.000Z</time>
      </trkpt>
      <trkpt lat="45.56766" lon="6.15307">
        <ele>474</ele>
        <time>2011-06-13T11:01:58.000Z</time>
      </trkpt>
      <trkpt lat="45.56793" lon="6.15313">
        <ele>466.79998779297</ele>
        <time>2011-06-13T11:02:11.000Z</time>
      </trkpt>
      <trkpt lat="45.56795" lon="6.15314">
        <ele>466.79998779297</ele>
        <time>2011-06-13T11:02:12.000Z</time>
      </trkpt>
      <trkpt lat="45.56802" lon="6.15321">
        <ele>468.20001220703</ele>
        <time>2011-06-13T11:02:17.000Z</time>
      </trkpt>
      <trkpt lat="45.56808" lon="6.15318">
        <ele>468.60000610352</ele>
        <time>2011-06-13T11:02:20.000Z</time>
      </trkpt>
      <trkpt lat="45.56849" lon="6.15324">
        <ele>465.79998779297</ele>
        <time>2011-06-13T11:02:34.000Z</time>
      </trkpt>
      <trkpt lat="45.56873" lon="6.15342">
        <ele>455.20001220703</ele>
        <time>2011-06-13T11:02:46.000Z</time>
      </trkpt>
      <trkpt lat="45.5689" lon="6.15365">
        <ele>443.60000610352</ele>
        <time>2011-06-13T11:02:56.000Z</time>
      </trkpt>
      <trkpt lat="45.56898" lon="6.1538">
        <ele>441.20001220703</ele>
        <time>2011-06-13T11:03:01.000Z</time>
      </trkpt>
      <trkpt lat="45.56903" lon="6.1541">
        <ele>435.60000610352</ele>
        <time>2011-06-13T11:03:08.000Z</time>
      </trkpt>
      <trkpt lat="45.56907" lon="6.15425">
        <ele>431.60000610352</ele>
        <time>2011-06-13T11:03:12.000Z</time>
      </trkpt>
      <trkpt lat="45.56912" lon="6.1544">
        <ele>426.79998779297</ele>
        <time>2011-06-13T11:03:17.000Z</time>
      </trkpt>
      <trkpt lat="45.56916" lon="6.15448">
        <ele>425.39999389648</ele>
        <time>2011-06-13T11:03:22.000Z</time>
      </trkpt>
      <trkpt lat="45.5692" lon="6.15448">
        <ele>425.39999389648</ele>
        <time>2011-06-13T11:03:27.000Z</time>
      </trkpt>
      <trkpt lat="45.56943" lon="6.15432">
        <ele>432.20001220703</ele>
        <time>2011-06-13T11:03:31.000Z</time>
      </trkpt>
      <trkpt lat="45.56964" lon="6.15436">
        <ele>435.60000610352</ele>
        <time>2011-06-13T11:03:35.000Z</time>
      </trkpt>
      <trkpt lat="45.56969" lon="6.15436">
        <ele>433.60000610352</ele>
        <time>2011-06-13T11:03:37.000Z</time>
      </trkpt>
    </trkseg>
  </trk>
</gpx>